Mount VernonWeather Station
Hourly Leaf Wetness Data

Source: University of Missouri

To the bottom of the page

Year Month Day Hour Leaf Wetness Total
Precipitation
Avg. Temp Avg. Rel.
Humidity
Wind
Speed
CST mV in mm F C % mph
2018 08 04 1:00 260.4 0.0 0.00 71.0 21.6 67.14 3.4
2018 08 04 2:00 259.8 0.0 0.00 71.5 21.9 62.54 4.4
2018 08 04 3:00 259.8 0.0 0.00 70.7 21.5 60.04 5.4
2018 08 04 4:00 259.9 0.0 0.00 68.6 20.3 63.15 5.6
2018 08 04 5:00 260.9 0.0 0.00 65.5 18.6 71.63 2.7
2018 08 04 6:00 261.8 0.0 0.00 63.4 17.4 79.28 2.2
2018 08 04 7:00 259.5 0.0 0.00 69.2 20.7 70.94 3.8
2018 08 04 8:00 258.1 0.0 0.00 76.1 24.5 61.71 8.8
2018 08 04 9:00 257.7 0.0 0.00 79.5 26.4 57.11 9.9
2018 08 04 10:00 257.3 0.0 0.00 83.0 28.3 48.34 10.6
2018 08 04 11:00 256.2 0.0 0.00 86.3 30.1 37.99 10.9
2018 08 04 12:00 255.1 0.0 0.00 88.8 31.6 30.88 10.4
2018 08 04 13:00 254.5 0.0 0.00 89.8 32.1 28.36 10.0
2018 08 04 14:00 254.1 0.0 0.00 90.7 32.6 27.51 10.6
2018 08 04 15:00 253.9 0.0 0.00 91.4 33.0 27.02 11.1
2018 08 04 16:00 253.4 0.0 0.00 91.5 33.1 25.76 11.4
2018 08 04 17:00 253.4 0.0 0.00 91.0 32.8 23.91 11.4
2018 08 04 18:00 253.4 0.0 0.00 89.8 32.1 23.9 11.4
2018 08 04 19:00 254.1 0.0 0.00 87.2 30.6 26.56 7.7
2018 08 04 20:00 256.2 0.0 0.00 80.7 27.0 34.36 3.2
2018 08 04 21:00 257.3 0.0 0.00 76.4 24.7 42.28 1.5
2018 08 04 22:00 258.1 0.0 0.00 71.3 21.9 53.26 2.4
2018 08 04 23:00 258.4 0.0 0.00 71.6 22.0 55.04 2.4
2018 08 04 24:00 258.4 0.0 0.00 73.1 22.8 55.01 4.8
2018 08 05 1:00 258.4 0.0 0.00 74.5 23.6 57.6 4.6
2018 08 05 2:00 259.3 0.0 0.00 72.4 22.4 65.58 2.3
2018 08 05 3:00 260.4 0.0 0.00 69.6 20.9 74.4 3.1
2018 08 05 4:00 260.3 0.0 0.00 71.3 21.8 73.27 3.3
2018 08 05 5:00 259.8 0.0 0.00 73.5 23.1 70.89 6.5
2018 08 05 6:00 260.2 0.0 0.00 73.2 22.9 73 4.3
2018 08 05 7:00 259.0 0.0 0.00 75.1 23.9 70.03 3.8
2018 08 05 8:00 257.8 0.0 0.00 80.3 26.8 60.66 7.9
2018 08 05 9:00 257.0 0.0 0.00 83.9 28.8 54.35 8.7
2018 08 05 10:00 256.6 0.0 0.00 87.3 30.7 47.17 10.2
2018 08 05 11:00 256.1 0.0 0.00 89.9 32.2 42.16 9.2
2018 08 05 12:00 255.3 0.0 0.00 90.8 32.6 37.7 9.3
2018 08 05 13:00 255.1 0.0 0.00 91.2 32.9 36.28 9.5
2018 08 05 14:00 254.4 0.0 0.00 92.9 33.9 32.51 10.4
2018 08 05 15:00 254.1 0.0 0.00 93.5 34.2 31.48 9.7
2018 08 05 16:00 253.9 0.0 0.00 93.6 34.2 31.23 9.3
2018 08 05 17:00 253.6 0.0 0.00 93.3 34.0 29.59 8.8
2018 08 05 18:00 253.7 0.0 0.00 92.5 33.6 30.4 9.0
2018 08 05 19:00 254.5 0.0 0.00 89.5 32.0 34.51 6.7
2018 08 05 20:00 256.6 0.0 0.00 84.1 28.9 42.5 3.4
2018 08 05 21:00 257.6 0.0 0.00 80.2 26.8 49.6 2.9
2018 08 05 22:00 257.6 0.0 0.00 79.3 26.3 52.04 5.0
2018 08 05 23:00 258.1 0.0 0.00 78.5 25.8 58.45 6.3
2018 08 05 24:00 258.3 0.0 0.00 77.7 25.4 62.32 6.0
2018 08 06 1:00 258.6 0.0 0.00 77.6 25.3 62.53 5.3
2018 08 06 2:00 259.2 0.0 0.00 75.9 24.4 67.99 4.9
2018 08 06 3:00 259.7 0.0 0.00 75.2 24.0 70.42 5.4
2018 08 06 4:00 259.7 0.0 0.00 74.7 23.7 71.08 5.5
2018 08 06 5:00 259.7 0.0 0.00 74.4 23.5 72.02 5.6
2018 08 06 6:00 259.6 0.0 0.00 75.2 24.0 69.98 7.0
2018 08 06 7:00 259.0 0.0 0.00 77.3 25.2 65.69 8.1
2018 08 06 8:00 257.6 0.0 0.00 80.7 27.1 58.56 12.1
2018 08 06 9:00 256.9 0.0 0.00 83.6 28.7 52.33 14.0
2018 08 06 10:00 256.6 0.0 0.00 86.2 30.1 47.85 13.2
2018 08 06 11:00 255.9 0.0 0.00 90.7 32.6 39.1 13.9
2018 08 06 12:00 255.2 0.0 0.00 91.7 33.2 37.73 13.6
2018 08 06 13:00 254.7 0.0 0.00 93.1 34.0 36 12.7
2018 08 06 14:00 254.8 0.0 0.00 93.9 34.4 34.62 12.6
2018 08 06 15:00 254.1 0.0 0.00 95.2 35.1 32.35 13.7
2018 08 06 16:00 254.0 0.0 0.00 95.3 35.2 31.94 12.6
2018 08 06 17:00 253.9 0.0 0.00 94.3 34.6 33.65 12.1
2018 08 06 18:00 254.1 0.0 0.00 92.4 33.6 36.01 11.3
2018 08 06 19:00 255.0 0.0 0.00 89.9 32.1 41.1 7.6
2018 08 06 20:00 256.9 0.0 0.00 85.2 29.6 50.75 3.8
2018 08 06 21:00 258.3 0.0 0.00 80.8 27.1 59.77 1.4
2018 08 06 22:00 259.0 0.0 0.00 78.9 26.0 64.03 0.8
2018 08 06 23:00 259.5 0.0 0.00 75.9 24.4 70.91 4.0
2018 08 06 24:00 259.3 0.0 0.00 76.6 24.8 66.79 4.5
2018 08 07 1:00 259.4 0.0 0.00 76.3 24.6 66.09 3.1
2018 08 07 2:00 259.7 0.0 0.00 75.5 24.2 68.74 3.9
2018 08 07 3:00 259.7 0.0 0.00 76.4 24.6 68.91 6.2
2018 08 07 4:00 259.7 0.0 0.00 75.8 24.3 70.31 5.3
2018 08 07 5:00 259.7 0.0 0.00 75.4 24.1 70.41 6.0
2018 08 07 6:00 259.7 0.0 0.00 75.6 24.2 68.92 6.8
2018 08 07 7:00 258.5 0.0 0.00 78.3 25.7 63.67 9.3
2018 08 07 8:00 257.7 0.0 0.00 81.6 27.5 58.42 12.7
2018 08 07 9:00 277.5 0.0 0.25 77.1 25.1 73.87 6.9
2018 08 07 10:00 Wet 335.2 0.2 4.06 71.8 22.1 97.3 6.7
2018 08 07 11:00 Wet 356.4 0.2 3.81 70.5 21.4 99.8 5.9
2018 08 07 12:00 274.5 0.0 1.02 70.7 21.5 99.8 7.5
2018 08 07 13:00 Wet 334.5 0.2 4.83 72.1 22.3 99.8 5.5
2018 08 07 14:00 271.2 0.0 0.00 76.2 24.6 87.6 6.8
2018 08 07 15:00 259.9 0.0 0.00 78.7 25.9 75.95 7.3
2018 08 07 16:00 258.2 0.0 0.00 82.5 28.0 65.84 7.1
2018 08 07 17:00 258.4 0.0 0.00 82.3 28.0 63.61 9.3
2018 08 07 18:00 259.1 0.0 0.00 81.1 27.3 67.18 5.5
2018 08 07 19:00 260.1 0.0 0.00 79.4 26.3 72.29 1.8
2018 08 07 20:00 260.7 0.0 0.00 78.0 25.5 76.54 2.1
2018 08 07 21:00 262.1 0.0 0.00 76.0 24.4 84.1 1.5
2018 08 07 22:00 266.8 0.0 0.00 74.0 23.4 96.4 0.4
2018 08 07 23:00 270.9 0.0 0.00 72.9 22.7 99.8 0.9
2018 08 07 24:00 Wet 289.1 0.0 0.00 71.7 22.1 99.8 0.4
2018 08 08 1:00 Wet 318.3 0.0 0.00 70.4 21.4 99.8 0.5
2018 08 08 2:00 Wet 354.1 0.0 0.00 69.5 20.9 37.58 1.0
2018 08 08 3:00 Wet 370.2 0.0 0.00 68.9 20.5 27.83 0.7
2018 08 08 4:00 Wet 360.9 0.0 0.00 69.0 20.6 1.189 0.5
2018 08 08 5:00 Wet 374.7 0.0 0.00 67.9 19.9 75.51 0.6
2018 08 08 6:00 Wet 366.2 0.0 0.00 67.4 19.7 10.72 0.0
2018 08 08 7:00 Wet 304.3 0.0 0.00 69.4 20.8 39.16 0.1
2018 08 08 8:00 259.8 0.0 0.00 73.8 23.3 84.7 0.7
2018 08 08 9:00 259.2 0.0 0.00 78.4 25.8 75.74 2.1
2018 08 08 10:00 259.6 0.0 0.00 79.1 26.2 69.97 6.0
2018 08 08 11:00 258.5 0.0 0.00 81.1 27.3 61.52 7.2
2018 08 08 12:00 258.1 0.0 0.00 81.7 27.6 61.66 5.3
2018 08 08 13:00 257.5 0.0 0.00 83.0 28.3 58.06 3.9
2018 08 08 14:00 257.2 0.0 0.00 84.5 29.2 56.61 3.6
2018 08 08 15:00 257.2 0.0 0.00 85.4 29.7 53.57 4.8
2018 08 08 16:00 258.2 0.0 0.00 82.7 28.1 59.8 9.2
2018 08 08 17:00 258.7 0.0 0.00 78.2 25.7 64.54 10.1
2018 08 08 18:00 258.9 0.0 0.00 77.6 25.4 68.76 6.1
2018 08 08 19:00 259.7 0.0 0.00 75.8 24.4 72.58 5.3
2018 08 08 20:00 261.0 0.0 0.00 72.1 22.3 80.5 5.5
2018 08 08 21:00 261.7 0.0 0.00 71.0 21.6 81.3 3.3
2018 08 08 22:00 262.1 0.0 0.00 70.1 21.1 83.9 1.1
2018 08 08 23:00 264.6 0.0 0.00 68.6 20.3 94.8 1.5
2018 08 08 24:00 265.9 0.0 0.00 67.8 19.9 99.8 4.4
2018 08 09 1:00 266.4 0.0 0.00 67.2 19.6 99.8 1.7
2018 08 09 2:00 279.4 0.0 0.00 66.0 18.9 99.8 0.1
2018 08 09 3:00 Wet 296.5 0.0 0.00 65.2 18.4 99.8 0.3
2018 08 09 4:00 Wet 310.0 0.0 0.00 64.6 18.1 99.8 0.6
2018 08 09 5:00 Wet 324.2 0.0 0.00 64.1 17.8 99.8 0.5
2018 08 09 6:00 Wet 338.3 0.0 0.00 64.3 17.9 96 0.7
2018 08 09 7:00 Wet 286.0 0.0 0.00 67.7 19.8 44.23 0.2
2018 08 09 8:00 260.1 0.0 0.00 72.7 22.6 90.7 3.2
2018 08 09 9:00 258.4 0.0 0.00 77.3 25.2 71.36 3.8
2018 08 09 10:00 258.6 0.0 0.00 81.1 27.3 62.39 2.4
2018 08 09 11:00 258.2 0.0 0.00 84.5 29.2 52.85 2.3
2018 08 09 12:00 256.6 0.0 0.00 86.2 30.1 46.43 2.7
2018 08 09 13:00 256.2 0.0 0.00 87.2 30.7 43.42 4.1
2018 08 09 14:00 255.6 0.0 0.00 88.8 31.5 39.54 3.9
2018 08 09 15:00 255.2 0.0 0.00 89.4 31.9 35.07 4.5
2018 08 09 16:00 257.1 0.0 0.00 79.6 26.5 46.21 9.5
2018 08 09 17:00 257.7 0.0 0.00 74.9 23.9 55.62 4.3
2018 08 09 18:00 257.2 0.0 0.00 79.2 26.2 50.75 3.1
2018 08 09 19:00 258.7 0.0 0.00 76.2 24.5 61.18 1.7
2018 08 09 20:00 260.1 0.0 0.00 73.5 23.0 70.67 3.0
2018 08 09 21:00 262.4 0.0 0.00 70.5 21.4 81.8 2.5
2018 08 09 22:00 264.7 0.0 0.00 69.1 20.6 89.5 1.7
2018 08 09 23:00 265.3 0.0 0.00 67.8 19.9 98.6 3.0
2018 08 09 24:00 266.1 0.0 0.00 67.0 19.4 99.8 2.6
2018 08 10 1:00 269.6 0.0 0.00 65.9 18.8 99.8 0.3
2018 08 10 2:00 Wet 284.4 0.0 0.00 65.0 18.3 99.8 0.1
2018 08 10 3:00 Wet 298.6 0.0 0.00 64.2 17.9 99.9 0.6
2018 08 10 4:00 Wet 313.8 0.0 0.00 63.2 17.4 99.9 0.1
2018 08 10 5:00 Wet 327.3 0.0 0.00 62.9 17.2 99.9 0.1
2018 08 10 6:00 Wet 330.2 0.0 0.00 62.6 17.0 99.9 0.1
2018 08 10 7:00 276.4 0.0 0.00 67.0 19.4 91.4 0.2
2018 08 10 8:00 258.7 0.0 0.00 75.1 24.0 72.3 2.2
2018 08 10 9:00 258.0 0.0 0.00 80.1 26.7 64.07 5.9
2018 08 10 10:00 258.0 0.0 0.00 83.3 28.5 58 7.3
2018 08 10 11:00 257.9 0.0 0.00 86.0 30.0 53.62 6.0
2018 08 10 12:00 256.5 0.0 0.00 87.5 30.9 47.18 5.6
2018 08 10 13:00 255.7 0.0 0.00 89.4 31.9 41.57 5.8
2018 08 10 14:00 255.1 0.0 0.00 90.9 32.7 37.49 5.6
2018 08 10 15:00 255.2 0.0 0.00 91.0 32.8 38.78 5.7
2018 08 10 16:00 255.2 0.0 0.00 90.9 32.7 39.92 8.2
2018 08 10 17:00 256.1 0.0 0.00 89.2 31.8 43.88 7.9
2018 08 10 18:00 256.8 0.0 0.00 87.1 30.6 49.46 8.4
2018 08 10 19:00 257.8 0.0 0.00 84.3 29.1 56.96 6.2
2018 08 10 20:00 258.3 0.0 0.00 80.9 27.2 59.43 5.6
2018 08 10 21:00 259.2 0.0 0.00 75.5 24.2 64.49 3.2
2018 08 10 22:00 260.2 0.0 0.00 72.9 22.7 71.84 2.0
2018 08 10 23:00 261.4 0.0 0.00 70.6 21.4 78.07 1.6
2018 08 10 24:00 262.6 0.0 0.00 68.7 20.4 82.9 1.9
2018 08 11 1:00 263.0 0.0 0.00 67.8 19.9 83.3 0.8
2018 08 11 2:00 263.9 0.0 0.00 67.2 19.6 85.7 0.3
2018 08 11 3:00 266.5 0.0 0.00 66.7 19.3 87.7 0.3
2018 08 11 4:00 266.8 0.0 0.00 64.9 18.3 99.8 1.3
2018 08 11 5:00 266.6 0.0 0.00 64.7 18.2 99.8 0.2
2018 08 11 6:00 267.5 0.0 0.00 64.4 18.0 99.8 1.0
2018 08 11 7:00 262.2 0.0 0.00 68.1 20.0 91.7 0.2
2018 08 11 8:00 259.9 0.0 0.00 73.8 23.2 77.44 1.0
2018 08 11 9:00 258.1 0.0 0.00 79.0 26.1 65.32 2.3
2018 08 11 10:00 257.6 0.0 0.00 83.1 28.4 56.88 2.4
2018 08 11 11:00 257.4 0.0 0.00 85.9 29.9 51.34 2.9
2018 08 11 12:00 256.2 0.0 0.00 87.4 30.8 45.62 3.8
2018 08 11 13:00 255.3 0.0 0.00 89.5 31.9 40.15 5.1
2018 08 11 14:00 255.0 0.0 0.00 90.3 32.4 36.34 4.4
2018 08 11 15:00 254.9 0.0 0.00 90.9 32.7 34.11 6.5
2018 08 11 16:00 255.0 0.0 0.00 89.8 32.1 34.81 5.7
2018 08 11 17:00 255.9 0.0 0.00 87.0 30.5 46.95 5.5
2018 08 11 18:00 256.0 0.0 0.00 85.4 29.7 49.68 6.5
2018 08 11 19:00 257.6 0.0 0.00 82.3 27.9 56.95 4.0
2018 08 11 20:00 259.1 0.0 0.00 78.0 25.6 66.61 4.0
2018 08 11 21:00 260.0 0.0 0.00 75.8 24.3 70.2 1.9
2018 08 11 22:00 261.5 0.0 0.00 72.7 22.6 78.75 0.8
2018 08 11 23:00 263.1 0.0 0.00 71.3 21.8 81.9 0.3
2018 08 11 24:00 265.2 0.0 0.00 69.4 20.8 86.9 1.3
2018 08 12 1:00 265.6 0.0 0.00 68.0 20.0 96.9 1.3
2018 08 12 2:00 265.4 0.0 0.00 66.7 19.3 99.8 1.5
2018 08 12 3:00 264.9 0.0 0.00 66.4 19.1 99.8 2.0
2018 08 12 4:00 271.8 0.0 0.00 65.5 18.6 99.8 1.8
2018 08 12 5:00 282.8 0.0 0.00 65.2 18.5 61.22 2.5
2018 08 12 6:00 281.5 0.0 0.00 65.4 18.6 99.8 2.1
2018 08 12 7:00 265.0 0.0 0.00 68.5 20.3 95.7 4.0
2018 08 12 8:00 260.2 0.0 0.00 74.7 23.7 77.76 4.5
2018 08 12 9:00 258.4 0.0 0.00 80.1 26.7 67.27 4.4
2018 08 12 10:00 258.1 0.0 0.00 83.5 28.6 59.89 6.5
2018 08 12 11:00 257.5 0.0 0.00 85.8 29.9 53.08 6.6
2018 08 12 12:00 256.6 0.0 0.00 87.4 30.8 48.03 5.5
2018 08 12 13:00 255.8 0.0 0.00 89.8 32.1 42.81 6.0
2018 08 12 14:00 255.5 0.0 0.00 88.9 31.6 43.51 7.2
2018 08 12 15:00 256.5 0.0 0.00 85.8 29.9 52.07 12.1
2018 08 12 16:00 256.8 0.0 0.00 84.6 29.2 51.33 10.0
2018 08 12 17:00 255.8 0.0 0.00 86.1 30.1 48.09 10.3
2018 08 12 18:00 256.4 0.0 0.00 85.1 29.5 50.91 8.1
2018 08 12 19:00 258.0 0.0 0.00 82.3 27.9 61.76 6.0
2018 08 12 20:00 259.1 0.0 0.00 78.0 25.5 66.64 6.5
2018 08 12 21:00 259.9 0.0 0.00 74.6 23.7 71.87 3.6
2018 08 12 22:00 260.6 0.0 0.00 72.8 22.6 76.17 4.6
2018 08 12 23:00 261.9 0.0 0.00 70.5 21.4 82.6 2.8
2018 08 12 24:00 264.5 0.0 0.00 68.7 20.4 87.3 2.1
2018 08 13 1:00 266.4 0.0 0.00 67.7 19.8 90.3 1.1
2018 08 13 2:00 266.4 0.0 0.00 66.8 19.3 92.8 1.4
2018 08 13 3:00 269.9 0.0 0.00 66.7 19.3 93.5 1.8
2018 08 13 4:00 277.7 0.0 0.00 66.6 19.2 93.9 1.1
2018 08 13 5:00 Wet 292.3 0.0 0.00 65.6 18.6 96 0.9
2018 08 13 6:00 Wet 309.9 0.0 0.00 64.8 18.3 97.1 0.6
2018 08 13 7:00 280.3 0.0 0.00 67.8 19.9 94.2 2.1
2018 08 13 8:00 260.6 0.0 0.00 73.2 22.9 82.2 5.6
2018 08 13 9:00 258.8 0.0 0.00 77.6 25.4 71.8 4.0
2018 08 13 10:00 258.5 0.0 0.00 80.7 27.1 63.53 6.5
2018 08 13 11:00 257.4 0.0 0.00 83.6 28.6 52.88 8.9
2018 08 13 12:00 256.4 0.0 0.00 86.0 30.0 48.03 9.2
2018 08 13 13:00 256.1 0.0 0.00 86.8 30.4 46.39 8.6
2018 08 13 14:00 263.0 0.1 1.52 85.7 29.8 48.22 9.2
2018 08 13 15:00 Wet 363.9 0.6 16.00 73.0 22.8 85.1 8.4
2018 08 13 16:00 261.2 0.0 0.00 75.7 24.3 78.52 3.2
2018 08 13 17:00 260.2 0.0 0.00 77.4 25.2 77.65 5.8
2018 08 13 18:00 260.5 0.0 0.00 76.8 24.9 74.43 7.3
2018 08 13 19:00 275.4 0.0 0.25 72.8 22.7 85.9 5.9
2018 08 13 20:00 278.2 0.0 0.00 70.0 21.1 93.7 3.6
2018 08 13 21:00 276.7 0.0 0.00 69.7 20.9 95.7 3.7
2018 08 13 22:00 276.7 0.0 0.00 69.7 20.9 96.8 3.4
2018 08 13 23:00 278.2 0.0 0.25 70.1 21.1 96.3 4.8
2018 08 13 24:00 Wet 289.0 0.0 0.51 70.2 21.2 91.9 5.8
2018 08 14 1:00 280.1 0.0 0.00 69.1 20.6 94.9 3.6
2018 08 14 2:00 275.4 0.0 0.25 69.2 20.7 95 5.4
2018 08 14 3:00 269.6 0.0 0.00 69.0 20.6 94 5.4
2018 08 14 4:00 266.6 0.0 0.00 69.1 20.6 93.4 6.4
2018 08 14 5:00 265.1 0.0 0.00 69.2 20.7 93.1 6.0
2018 08 14 6:00 264.6 0.0 0.00 69.6 20.9 92.1 5.6
2018 08 14 7:00 264.7 0.0 0.00 69.9 21.0 91.7 5.3
2018 08 14 8:00 263.5 0.0 0.00 70.4 21.4 90.6 6.2
2018 08 14 9:00 262.6 0.0 0.00 71.5 21.9 88 7.7
2018 08 14 10:00 268.4 0.0 0.51 71.3 21.8 89.2 9.2
2018 08 14 11:00 262.2 0.0 0.00 72.8 22.7 84.2 10.1
2018 08 14 12:00 261.3 0.0 0.00 75.3 24.1 75.67 13.5
2018 08 14 13:00 260.6 0.0 0.00 76.1 24.5 73.44 14.1
2018 08 14 14:00 260.8 0.0 0.00 75.0 23.9 75.9 14.1
2018 08 14 15:00 261.2 0.0 0.00 73.8 23.2 78.2 11.4
2018 08 14 16:00 261.0 0.0 0.00 74.5 23.6 75.93 11.1
2018 08 14 17:00 261.1 0.0 0.00 74.8 23.8 75.68 10.4
2018 08 14 18:00 261.1 0.0 0.00 75.1 23.9 75.62 8.5
2018 08 14 19:00 261.7 0.0 0.00 74.1 23.4 77.19 8.2
2018 08 14 20:00 261.7 0.0 0.00 73.2 22.9 79.97 6.1
2018 08 14 21:00 261.8 0.0 0.00 72.8 22.7 81.5 5.3
2018 08 14 22:00 262.4 0.0 0.00 71.9 22.1 84.3 3.4
2018 08 14 23:00 262.5 0.0 0.00 71.0 21.7 85.8 4.7
2018 08 14 24:00 263.6 0.0 0.00 70.8 21.6 84.4 5.3
2018 08 15 1:00 Wet 284.9 0.0 1.02 69.8 21.0 88.8 6.1
2018 08 15 2:00 Wet 359.8 0.2 4.57 68.8 20.4 94.6 4.7
2018 08 15 3:00 Wet 351.5 0.1 2.29 68.8 20.4 95.4 4.4
2018 08 15 4:00 Wet 298.7 0.0 0.00 69.2 20.7 96 3.8
2018 08 15 5:00 276.6 0.0 0.00 69.8 21.0 95.4 6.1
2018 08 15 6:00 272.9 0.0 0.25 70.0 21.1 95.6 4.6
2018 08 15 7:00 270.1 0.0 0.00 70.4 21.4 94.9 4.7
2018 08 15 8:00 263.9 0.0 0.00 71.2 21.8 92.3 4.5
2018 08 15 9:00 263.8 0.0 0.00 71.9 22.2 91.2 5.2
2018 08 15 10:00 276.3 0.2 4.32 72.1 22.3 92.8 7.0
2018 08 15 11:00 Wet 397.3 0.7 18.80 70.4 21.4 96.4 5.0
2018 08 15 12:00 Wet 357.1 0.1 2.54 71.1 21.7 93.2 8.7
2018 08 15 13:00 271.0 0.0 0.25 74.8 23.8 85.9 12.7
2018 08 15 14:00 261.1 0.0 0.00 78.1 25.6 76.98 12.0
2018 08 15 15:00 260.8 0.0 0.00 78.3 25.7 75.68 11.3
2018 08 15 16:00 260.5 0.0 0.00 78.7 25.9 75.16 10.2
2018 08 15 17:00 260.1 0.0 0.00 80.1 26.7 73.15 8.6
2018 08 15 18:00 260.9 0.0 0.00 79.5 26.4 74.29 7.2
2018 08 15 19:00 261.2 0.0 0.00 79.0 26.1 77 6.2
2018 08 15 20:00 262.1 0.0 0.00 76.6 24.8 81.7 4.8
2018 08 15 21:00 263.7 0.0 0.00 74.6 23.6 89.4 2.4
2018 08 15 22:00 263.8 0.0 0.00 74.8 23.8 90.6 2.1
2018 08 15 23:00 265.4 0.0 0.00 73.8 23.2 92.6 2.3
2018 08 15 24:00 266.5 0.0 0.00 73.2 22.9 94.7 2.6
2018 08 16 1:00 268.8 0.0 0.00 73.2 22.9 95.7 3.5
2018 08 16 2:00 282.7 0.0 0.00 72.0 22.2 97 4.3
2018 08 16 3:00 Wet 299.5 0.0 0.00 71.5 21.9 98.3 5.1
2018 08 16 4:00 Wet 315.1 0.0 0.00 70.9 21.6 98.7 4.9
2018 08 16 5:00 Wet 351.3 0.0 0.00 70.0 21.1 98.9 4.5
2018 08 16 6:00 Wet 370.6 0.0 0.00 69.3 20.7 99.1 3.8
2018 08 16 7:00 Wet 354.9 0.0 0.00 69.4 20.8 99.2 2.0
2018 08 16 8:00 267.9 0.0 0.00 71.9 22.2 94.2 1.3
2018 08 16 9:00 259.6 0.0 0.00 76.2 24.6 78.2 1.8
2018 08 16 10:00 259.6 0.0 0.00 79.5 26.4 67.02 2.1
2018 08 16 11:00 259.1 0.0 0.00 81.7 27.6 62.54 3.0
2018 08 16 12:00 258.1 0.0 0.00 83.4 28.6 60.38 3.9
2018 08 16 13:00 257.7 0.0 0.00 85.5 29.7 59.05 4.2
2018 08 16 14:00 257.9 0.0 0.00 87.3 30.7 55.91 4.3
2018 08 16 15:00 257.4 0.0 0.00 88.3 31.3 54.61 3.5
2018 08 16 16:00 256.8 0.0 0.00 89.0 31.7 53.43 2.2
2018 08 16 17:00 257.1 0.0 0.00 89.0 31.7 54.11 3.7
2018 08 16 18:00 259.6 0.0 0.00 85.8 29.9 66.2 1.8
2018 08 16 19:00 Wet 288.1 0.0 0.25 76.4 24.6 73.73 12.8
2018 08 16 20:00 Wet 357.5 0.0 0.76 72.4 22.4 90.4 9.1
2018 08 16 21:00 274.3 0.0 0.00 71.3 21.8 89.8 3.1
2018 08 16 22:00 279.2 0.0 0.00 70.5 21.4 89.8 2.6
2018 08 16 23:00 270.1 0.0 0.00 70.1 21.2 89.6 8.1
2018 08 16 24:00 263.8 0.0 0.00 70.2 21.2 88 4.6
2018 08 17 1:00 270.7 0.0 0.00 68.5 20.3 93.4 1.4
2018 08 17 2:00 265.6 0.0 0.00 68.9 20.5 91.3 5.8
2018 08 17 3:00 264.8 0.0 0.00 68.4 20.2 91.7 4.1
2018 08 17 4:00 265.5 0.0 0.00 67.9 19.9 93.8 3.4
2018 08 17 5:00 267.5 0.0 0.00 67.7 19.8 93.9 2.9
2018 08 17 6:00 265.7 0.0 0.00 67.7 19.8 93.4 3.8
2018 08 17 7:00 277.9 0.0 0.51 68.4 20.2 92.3 4.6
2018 08 17 8:00 Wet 326.0 0.1 3.05 67.7 19.9 93.7 5.6
2018 08 17 9:00 Wet 314.0 0.0 0.25 67.7 19.8 95.8 2.5
2018 08 17 10:00 271.1 0.0 0.00 68.8 20.4 92.5 2.9
2018 08 17 11:00 262.8 0.0 0.00 70.3 21.3 88.4 4.5
2018 08 17 12:00 261.3 0.0 0.00 72.3 22.4 83.9 3.8
2018 08 17 13:00 259.8 0.0 0.00 76.3 24.6 73.12 4.2
2018 08 17 14:00 259.4 0.0 0.00 78.6 25.9 69.68 4.6
2018 08 17 15:00 259.1 0.0 0.00 80.5 26.9 67.05 4.6
2018 08 17 16:00 259.2 0.0 0.00 81.0 27.2 65.92 5.6
2018 08 17 17:00 258.4 0.0 0.00 82.0 27.8 64.06 4.3
2018 08 17 18:00 258.4 0.0 0.00 81.7 27.6 64.33 4.5
2018 08 17 19:00 259.6 0.0 0.00 80.2 26.8 69.15 2.2
2018 08 17 20:00 262.0 0.0 0.00 76.4 24.7 77.15 3.0
2018 08 17 21:00 264.4 0.0 0.00 73.4 23.0 86 3.0
2018 08 17 22:00 272.4 0.0 0.00 71.2 21.8 92.7 0.4
2018 08 17 23:00 273.3 0.0 0.00 70.9 21.6 91 0.8
2018 08 17 24:00 277.2 0.0 0.00 69.1 20.6 93.2 2.0
2018 08 18 1:00 273.0 0.0 0.00 68.9 20.5 92.1 0.6
2018 08 18 2:00 Wet 289.4 0.0 0.00 67.7 19.8 93.9 0.1
2018 08 18 3:00 Wet 310.3 0.0 0.00 66.2 19.0 95.9 0.7
2018 08 18 4:00 Wet 330.9 0.0 0.00 65.3 18.5 96.7 0.1
2018 08 18 5:00 Wet 359.3 0.0 0.00 64.8 18.2 97.9 1.0
2018 08 18 6:00 Wet 378.0 0.0 0.00 64.3 18.0 97.6 1.8
2018 08 18 7:00 Wet 312.3 0.0 0.00 66.6 19.2 94.3 0.1
2018 08 18 8:00 263.1 0.0 0.00 71.3 21.9 85.9 1.6
2018 08 18 9:00 259.3 0.0 0.00 76.0 24.5 75.03 3.6
2018 08 18 10:00 259.6 0.0 0.00 79.4 26.3 64.99 4.4
2018 08 18 11:00 259.3 0.0 0.00 81.4 27.4 59.4 3.8
2018 08 18 12:00 258.0 0.0 0.00 82.7 28.2 54.63 3.6
2018 08 18 13:00 257.6 0.0 0.00 84.4 29.1 50.07 3.8
2018 08 18 14:00 257.4 0.0 0.00 85.7 29.8 44.71 5.1
2018 08 18 15:00 257.1 0.0 0.00 86.3 30.2 44.39 5.1
2018 08 18 16:00 256.7 0.0 0.00 86.3 30.2 44.83 4.2
2018 08 18 17:00 256.5 0.0 0.00 86.1 30.1 44.39 3.9
2018 08 18 18:00 257.1 0.0 0.00 84.8 29.4 47.99 3.1
2018 08 18 19:00 258.5 0.0 0.00 81.5 27.5 55.2 1.1
2018 08 18 20:00 260.5 0.0 0.00 77.6 25.3 63.89 0.4
2018 08 18 21:00 262.2 0.0 0.00 73.8 23.2 73.99 1.1
2018 08 18 22:00 263.6 0.0 0.00 70.9 21.6 82.4 1.1
2018 08 18 23:00 264.6 0.0 0.00 69.2 20.7 87.3 2.1
2018 08 18 24:00 263.5 0.0 0.00 69.7 20.9 85.4 3.5
2018 08 19 1:00 263.7 0.0 0.00 69.3 20.7 86.4 3.3
2018 08 19 2:00 264.2 0.0 0.00 69.0 20.5 87.1 2.8
2018 08 19 3:00 265.9 0.0 0.00 67.7 19.9 90.5 2.6
2018 08 19 4:00 267.3 0.0 0.00 67.1 19.5 91.9 3.0
2018 08 19 5:00 271.5 0.0 0.00 66.3 19.0 93.2 0.9
2018 08 19 6:00 274.2 0.0 0.00 65.7 18.7 95.1 3.5
2018 08 19 7:00 263.9 0.0 0.00 68.5 20.3 91.3 5.1
2018 08 19 8:00 263.1 0.0 0.00 71.1 21.7 87.4 6.5
2018 08 19 9:00 263.1 0.0 0.00 71.6 22.0 86.2 6.3
2018 08 19 10:00 263.1 0.0 0.00 71.1 21.7 87.7 4.4
2018 08 19 11:00 Wet 365.6 0.2 6.10 69.7 21.0 93.7 4.6
2018 08 19 12:00 Wet 311.2 0.0 0.51 69.5 20.8 97.6 4.4
2018 08 19 13:00 269.6 0.0 0.51 71.0 21.7 95.1 3.8
2018 08 19 14:00 Wet 330.0 0.1 2.03 71.6 22.0 96.5 4.0
2018 08 19 15:00 270.1 0.0 0.25 73.1 22.9 94.4 7.5
2018 08 19 16:00 262.6 0.0 0.00 75.3 24.1 91 9.8
2018 08 19 17:00 262.4 0.0 0.00 76.2 24.6 87.1 10.6
2018 08 19 18:00 Wet 423.9 1.4 35.81 70.0 21.1 92.9 10.2
2018 08 19 19:00 272.8 0.0 0.00 70.1 21.2 99.4 6.1
2018 08 19 20:00 267.0 0.0 0.00 71.1 21.7 99.2 5.8
2018 08 19 21:00 265.7 0.0 0.00 72.1 22.3 97.2 8.2
2018 08 19 22:00 264.8 0.0 0.00 72.2 22.3 93.3 7.5
2018 08 19 23:00 264.4 0.0 0.00 71.0 21.7 90.7 9.8
2018 08 19 24:00 264.6 0.0 0.00 68.6 20.3 90.9 6.2
2018 08 20 1:00 265.5 0.0 0.00 66.7 19.3 91.9 5.9
2018 08 20 2:00 264.5 0.0 0.00 67.0 19.4 89.6 8.3
2018 08 20 3:00 265.2 0.0 0.00 66.4 19.1 91.3 5.8
2018 08 20 4:00 270.2 0.0 0.00 65.3 18.5 94.6 4.0
2018 08 20 5:00 279.3 0.0 0.00 65.1 18.4 95.7 3.5
2018 08 20 6:00 Wet 284.0 0.0 0.00 65.2 18.5 96.7 2.4
2018 08 20 7:00 265.8 0.0 0.00 66.6 19.2 95.1 3.4
2018 08 20 8:00 263.1 0.0 0.00 68.0 20.0 88.6 5.8
2018 08 20 9:00 272.7 0.0 0.25 68.4 20.2 85.9 5.7
2018 08 20 10:00 261.9 0.0 0.00 71.5 21.9 76.65 7.3
2018 08 20 11:00 260.9 0.0 0.00 73.3 23.0 70.94 9.9
2018 08 20 12:00 260.8 0.0 0.00 74.2 23.4 69.75 10.8
2018 08 20 13:00 261.0 0.0 0.00 74.2 23.4 73.77 11.6
2018 08 20 14:00 260.3 0.0 0.00 75.1 23.9 67.87 14.8
2018 08 20 15:00 260.1 0.0 0.00 75.5 24.2 65.59 15.4
2018 08 20 16:00 Wet 287.7 0.0 0.51 72.9 22.7 76.31 14.2
2018 08 20 17:00 261.0 0.0 0.00 73.0 22.8 77.34 12.4
2018 08 20 18:00 260.7 0.0 0.00 73.4 23.0 71.96 12.6
2018 08 20 19:00 261.4 0.0 0.00 72.3 22.4 73.86 9.1
2018 08 20 20:00 261.7 0.0 0.00 71.0 21.7 73.65 10.2
2018 08 20 21:00 261.8 0.0 0.00 70.8 21.5 74.51 9.5
2018 08 20 22:00 262.3 0.0 0.00 70.3 21.3 74.38 9.6
2018 08 20 23:00 261.8 0.0 0.00 69.9 21.0 74.35 10.3
2018 08 20 24:00 262.3 0.0 0.00 68.6 20.3 78.64 9.7
2018 08 21 1:00 262.0 0.0 0.00 68.6 20.4 78.13 9.0
2018 08 21 2:00 265.8 0.0 0.00 67.0 19.4 85.7 9.5
2018 08 21 3:00 Wet 347.9 0.0 0.25 65.1 18.4 96 8.2
2018 08 21 4:00 Wet 349.1 0.0 0.00 64.8 18.2 97.2 8.0
2018 08 21 5:00 Wet 314.8 0.0 0.00 65.2 18.5 96.6 8.3
2018 08 21 6:00 Wet 291.7 0.0 0.00 65.6 18.6 95.6 7.8
2018 08 21 7:00 280.1 0.0 0.00 65.9 18.9 94.4 8.1
2018 08 21 8:00 Wet 318.3 0.0 0.00 66.1 19.0 95.8 7.8
2018 08 21 9:00 Wet 289.5 0.0 0.00 67.0 19.4 94 6.8
2018 08 21 10:00 263.2 0.0 0.00 69.1 20.6 87.1 8.4
2018 08 21 11:00 261.4 0.0 0.00 72.5 22.5 75.37 9.4
2018 08 21 12:00 260.2 0.0 0.00 74.7 23.7 67.48 9.2
2018 08 21 13:00 259.4 0.0 0.00 77.2 25.1 59.61 9.4
2018 08 21 14:00 258.5 0.0 0.00 78.5 25.9 56.62 8.5
2018 08 21 15:00 257.5 0.0 0.00 79.1 26.2 55.63 7.7
2018 08 21 16:00 256.9 0.0 0.00 79.7 26.5 53.76 8.0
2018 08 21 17:00 257.9 0.0 0.00 78.7 26.0 55 5.9
2018 08 21 18:00 257.8 0.0 0.00 78.4 25.8 57.13 3.5
2018 08 21 19:00 259.6 0.0 0.00 75.4 24.1 63.48 2.8
2018 08 21 20:00 261.7 0.0 0.00 72.0 22.2 72.06 1.5
2018 08 21 21:00 262.4 0.0 0.00 70.0 21.1 77.71 1.2
2018 08 21 22:00 266.6 0.0 0.00 66.8 19.3 87.1 1.3
2018 08 21 23:00 279.0 0.0 0.00 64.5 18.1 93.3 1.0
2018 08 21 24:00 Wet 297.1 0.0 0.00 63.6 17.6 95 1.2
2018 08 22 1:00 Wet 293.8 0.0 0.00 64.7 18.1 94.3 0.1
2018 08 22 2:00 Wet 294.0 0.0 0.00 64.6 18.1 94.8 0.5
2018 08 22 3:00 Wet 286.1 0.0 0.00 65.0 18.4 92.3 0.4
2018 08 22 4:00 272.5 0.0 0.00 65.1 18.4 94.8 0.8
2018 08 22 5:00 269.8 0.0 0.00 64.8 18.2 92.9 1.2
2018 08 22 6:00 270.8 0.0 0.00 64.6 18.1 92.8 0.4
2018 08 22 7:00 265.7 0.0 0.00 64.8 18.2 93.1 0.5
2018 08 22 8:00 263.2 0.0 0.00 66.3 19.1 91.2 1.6
2018 08 22 9:00 261.8 0.0 0.00 69.5 20.8 83.4 3.2
2018 08 22 10:00 260.6 0.0 0.00 72.6 22.5 73.02 3.4
2018 08 22 11:00 260.0 0.0 0.00 73.5 23.0 70.66 4.7
2018 08 22 12:00 260.2 0.0 0.00 73.7 23.2 69.45 5.0
2018 08 22 13:00 260.3 0.0 0.00 73.6 23.1 69.88 4.1
2018 08 22 14:00 260.3 0.0 0.00 73.5 23.0 71.16 4.3
2018 08 22 15:00 259.6 0.0 0.00 74.3 23.5 68.04 3.9
2018 08 22 16:00 259.7 0.0 0.00 74.2 23.5 65.98 3.0
2018 08 22 17:00 260.3 0.0 0.00 73.7 23.1 67.08 3.3
2018 08 22 18:00 260.4 0.0 0.00 72.6 22.6 69.74 3.9
2018 08 22 19:00 261.5 0.0 0.00 70.8 21.6 71.31 0.6
2018 08 22 20:00 262.8 0.0 0.00 68.3 20.2 78.1 0.2
2018 08 22 21:00 264.6 0.0 0.00 65.4 18.5 87.2 0.9
2018 08 22 22:00 265.2 0.0 0.00 65.5 18.6 86.5 0.1
2018 08 22 23:00 278.2 0.0 0.00 63.7 17.6 92.5 0.0
2018 08 22 24:00 Wet 297.6 0.0 0.00 62.0 16.7 97.4 0.0
2018 08 23 1:00 Wet 318.7 0.0 0.00 60.8 16.0 98.7 0.4
2018 08 23 2:00 Wet 340.0 0.0 0.00 60.0 15.5 98.5 0.8
2018 08 23 3:00 Wet 353.4 0.0 0.00 60.2 15.7 94.4 0.6
2018 08 23 4:00 Wet 347.6 0.0 0.00 60.2 15.6 93.2 2.0
2018 08 23 5:00 Wet 308.9 0.0 0.00 61.4 16.3 90 2.4
2018 08 23 6:00 280.2 0.0 0.00 62.0 16.7 87 3.4
2018 08 23 7:00 265.0 0.0 0.00 64.0 17.8 84.9 4.8
2018 08 23 8:00 263.0 0.0 0.00 65.4 18.6 82.8 5.7
2018 08 23 9:00 270.5 0.0 0.25 65.4 18.5 86.7 4.2
2018 08 23 10:00 Wet 290.0 0.1 3.56 64.0 17.8 92.9 4.2
2018 08 23 11:00 Wet 312.9 0.2 5.59 63.4 17.5 95.4 6.6
2018 08 23 12:00 Wet 316.9 0.2 5.33 63.6 17.5 96.8 3.9
2018 08 23 13:00 Wet 318.5 0.2 4.57 63.7 17.6 97.1 4.8
2018 08 23 14:00 Wet 330.1 0.1 3.56 64.0 17.8 97.1 6.4
2018 08 23 15:00 Wet 317.9 0.0 1.02 64.8 18.2 96 9.4
2018 08 23 16:00 Wet 317.7 0.0 0.25 65.4 18.5 95.4 11.5
2018 08 23 17:00 269.8 0.0 0.00 66.8 19.3 92.8 12.1
2018 08 23 18:00 263.0 0.0 0.00 67.6 19.8 90.5 10.5
2018 08 23 19:00 264.1 0.0 0.00 66.6 19.2 92.2 8.0
2018 08 23 20:00 265.1 0.0 0.00 66.0 18.9 92.4 6.8
2018 08 23 21:00 265.2 0.0 0.00 65.9 18.8 92.8 6.8
2018 08 23 22:00 265.1 0.0 0.00 66.2 19.0 92.4 7.5
2018 08 23 23:00 264.5 0.0 0.00 67.0 19.4 89.8 9.0
2018 08 23 24:00 264.5 0.0 0.00 66.8 19.3 89.7 7.5
2018 08 24 1:00 264.4 0.0 0.00 66.7 19.3 89.9 8.0
2018 08 24 2:00 263.8 0.0 0.00 67.7 19.9 87.1 8.9
2018 08 24 3:00 263.7 0.0 0.00 68.1 20.0 86.5 7.7
2018 08 24 4:00 263.9 0.0 0.00 67.6 19.8 88.2 6.8
2018 08 24 5:00 263.9 0.0 0.00 67.4 19.7 89.4 6.3
2018 08 24 6:00 264.6 0.0 0.00 66.9 19.4 91.3 6.3
2018 08 24 7:00 264.1 0.0 0.00 68.3 20.2 89.3 5.4
2018 08 24 8:00 262.4 0.0 0.00 72.3 22.4 80.7 10.7
2018 08 24 9:00 261.7 0.0 0.25 74.9 23.9 76.94 11.2
2018 08 24 10:00 261.2 0.0 0.00 78.2 25.6 72.64 13.1
2018 08 24 11:00 260.7 0.0 0.00 80.5 27.0 69.55 13.7
2018 08 24 12:00 260.2 0.0 0.00 81.6 27.6 67.83 13.6
2018 08 24 13:00 260.4 0.0 0.00 82.0 27.8 68.37 9.9
2018 08 24 14:00 261.1 0.0 0.00 81.2 27.3 72.61 6.1
2018 08 24 15:00 261.0 0.0 0.00 81.8 27.7 73.41 5.4
2018 08 24 16:00 261.2 0.0 0.00 81.1 27.3 77.23 5.5
2018 08 24 17:00 261.3 0.0 0.00 81.4 27.4 77.98 5.9
2018 08 24 18:00 261.2 0.0 0.00 81.8 27.7 77.83 6.0
2018 08 24 19:00 261.4 0.0 0.00 81.1 27.3 76.31 5.7
2018 08 24 20:00 262.3 0.0 0.00 78.8 26.0 80.5 5.4
2018 08 24 21:00 262.3 0.0 0.00 78.2 25.6 80 6.3
2018 08 24 22:00 262.3 0.0 0.00 77.4 25.2 80.5 5.8
2018 08 24 23:00 262.9 0.0 0.00 76.2 24.6 83.3 4.5
2018 08 24 24:00 263.7 0.0 0.00 75.0 23.9 86.7 3.9
2018 08 25 1:00 263.5 0.0 0.00 75.4 24.1 86 6.8
2018 08 25 2:00 263.1 0.0 0.00 75.7 24.3 84.6 7.7
2018 08 25 3:00 263.1 0.0 0.00 75.7 24.3 83.4 7.3
2018 08 25 4:00 263.1 0.0 0.00 75.1 23.9 82.8 5.6
2018 08 25 5:00 263.1 0.0 0.00 75.0 23.9 81.3 5.8
2018 08 25 6:00 263.9 0.0 0.00 74.9 23.8 82.2 8.5
2018 08 25 7:00 270.4 0.0 0.25 74.2 23.4 84.4 8.0
2018 08 25 8:00 262.4 0.0 0.00 76.2 24.6 79.46 7.4
2018 08 25 9:00 261.6 0.0 0.00 78.3 25.7 75.43 11.0
2018 08 25 10:00 261.6 0.0 0.00 78.0 25.6 76.56 9.9
2018 08 25 11:00 261.6 0.0 0.00 78.0 25.5 78.06 6.8
2018 08 25 12:00 260.7 0.0 0.00 81.6 27.5 72.42 7.6
2018 08 25 13:00 260.1 0.0 0.00 83.3 28.5 69.87 8.0
2018 08 25 14:00 260.9 0.0 0.00 82.2 27.9 73.27 5.5
2018 08 25 15:00 260.3 0.0 0.00 82.7 28.2 74.23 4.0
2018 08 25 16:00 259.5 0.0 0.00 85.9 29.9 69.16 5.3
2018 08 25 17:00 259.5 0.0 0.00 86.2 30.1 67.27 5.7
2018 08 25 18:00 260.5 0.0 0.00 84.1 28.9 70.81 4.5
2018 08 25 19:00 261.3 0.0 0.00 81.4 27.4 78.86 2.4
2018 08 25 20:00 263.9 0.0 0.00 78.4 25.8 81.5 2.8
2018 08 25 21:00 263.0 0.0 0.00 76.8 24.9 79.88 4.5
2018 08 25 22:00 263.3 0.0 0.00 75.6 24.2 82.8 4.2
2018 08 25 23:00 264.2 0.0 0.00 74.7 23.7 86 5.4
2018 08 25 24:00 263.7 0.0 0.00 75.4 24.1 85.7 6.6
2018 08 26 1:00 264.4 0.0 0.00 74.4 23.6 88.4 5.1
2018 08 26 2:00 264.4 0.0 0.00 74.5 23.6 87.9 4.6
2018 08 26 3:00 264.2 0.0 0.00 74.6 23.7 86.6 5.0
2018 08 26 4:00 263.7 0.0 0.00 74.9 23.8 84.3 5.8
2018 08 26 5:00 263.8 0.0 0.00 74.5 23.6 84.1 5.0
2018 08 26 6:00 263.6 0.0 0.00 74.2 23.4 83.4 5.6
2018 08 26 7:00 262.8 0.0 0.00 74.8 23.8 80.9 5.6
2018 08 26 8:00 261.6 0.0 0.00 77.3 25.2 75.68 6.6
2018 08 26 9:00 260.9 0.0 0.00 80.3 26.8 69.69 7.9
2018 08 26 10:00 260.6 0.0 0.00 81.7 27.6 66.36 9.3
2018 08 26 11:00 259.9 0.0 0.00 83.8 28.8 64.93 9.1
2018 08 26 12:00 259.0 0.0 0.00 84.9 29.4 61.87 10.8
2018 08 26 13:00 258.7 0.0 0.00 86.3 30.1 61.04 9.7
2018 08 26 14:00 258.3 0.0 0.00 87.1 30.6 58.55 10.2
2018 08 26 15:00 258.3 0.0 0.00 87.0 30.6 58.29 9.6
2018 08 26 16:00 258.0 0.0 0.00 87.3 30.7 56.66 10.2
2018 08 26 17:00 257.9 0.0 0.00 86.8 30.4 58.73 9.4
2018 08 26 18:00 258.2 0.0 0.00 85.0 29.5 58.95 8.4
2018 08 26 19:00 259.6 0.0 0.00 82.2 27.9 64.9 5.8
2018 08 26 20:00 260.3 0.0 0.00 79.6 26.4 69.07 6.2
2018 08 26 21:00 261.2 0.0 0.00 77.6 25.3 73.1 5.6
2018 08 26 22:00 261.6 0.0 0.00 76.7 24.8 74 6.7
2018 08 26 23:00 261.7 0.0 0.00 75.8 24.4 76.25 7.5
2018 08 26 24:00 261.7 0.0 0.00 75.4 24.1 78.5 8.7
2018 08 27 1:00 261.7 0.0 0.00 74.9 23.8 80.8 8.9
2018 08 27 2:00 262.2 0.0 0.00 74.1 23.4 83.1 8.3
2018 08 27 3:00 262.5 0.0 0.00 73.4 23.0 84.7 7.1
2018 08 27 4:00 262.8 0.0 0.00 73.0 22.8 84.9 6.6
2018 08 27 5:00 263.0 0.0 0.00 73.0 22.8 84.2 6.3
2018 08 27 6:00 262.8 0.0 0.00 73.2 22.9 82.8 6.5
2018 08 27 7:00 262.1 0.0 0.00 74.4 23.6 80.4 6.6
2018 08 27 8:00 261.1 0.0 0.00 77.7 25.4 73.43 10.1
2018 08 27 9:00 260.5 0.0 0.00 80.2 26.8 68.72 14.0
2018 08 27 10:00 260.2 0.0 0.00 82.1 27.9 65.03 14.7
2018 08 27 11:00 259.5 0.0 0.00 83.9 28.9 61.47 14.6
2018 08 27 12:00 258.6 0.0 0.00 85.5 29.7 59.37 13.9
2018 08 27 13:00 258.2 0.0 0.00 86.7 30.4 58.05 13.4
2018 08 27 14:00 258.0 0.0 0.00 87.3 30.7 56.75 13.6
2018 08 27 15:00 258.2 0.0 0.00 87.0 30.6 58.32 12.7
2018 08 27 16:00 258.2 0.0 0.00 86.8 30.5 57.15 12.5
2018 08 27 17:00 258.1 0.0 0.00 86.0 30.0 57.28 12.0
2018 08 27 18:00 258.2 0.0 0.00 84.5 29.1 59.23 11.2
2018 08 27 19:00 259.3 0.0 0.00 82.1 27.9 63.12 8.9
2018 08 27 20:00 260.4 0.0 0.00 79.8 26.6 69.37 7.4
2018 08 27 21:00 260.9 0.0 0.00 78.4 25.8 72.49 7.7
2018 08 27 22:00 261.2 0.0 0.00 77.7 25.4 74.62 7.9
2018 08 27 23:00 261.6 0.0 0.00 77.0 25.0 76.94 8.0
2018 08 27 24:00 261.7 0.0 0.00 76.5 24.7 79.32 7.5
2018 08 28 1:00 261.7 0.0 0.00 76.1 24.5 80.6 7.3
2018 08 28 2:00 262.2 0.0 0.00 75.4 24.1 82.1 6.2
2018 08 28 3:00 262.4 0.0 0.00 74.7 23.7 83.2 5.7
2018 08 28 4:00 263.0 0.0 0.00 74.0 23.4 84.6 5.9
2018 08 28 5:00 263.1 0.0 0.00 73.7 23.2 85 5.6
2018 08 28 6:00 263.1 0.0 0.00 73.3 23.0 85.5 6.0
2018 08 28 7:00 262.2 0.0 0.00 74.2 23.5 82.9 7.6
2018 08 28 8:00 261.4 0.0 0.00 76.9 25.0 76.01 9.5
2018 08 28 9:00 260.7 0.0 0.00 79.7 26.5 70.5 12.2
2018 08 28 10:00 260.4 0.0 0.00 81.8 27.7 67.84 13.1
2018 08 28 11:00 259.7 0.0 0.00 84.0 28.9 64.58 12.7
2018 08 28 12:00 258.8 0.0 0.00 85.6 29.8 62.77 12.9
2018 08 28 13:00 258.4 0.0 0.00 87.1 30.6 60.26 12.0
2018 08 28 14:00 258.1 0.0 0.00 88.0 31.1 58.55 11.5
2018 08 28 15:00 258.4 0.0 0.00 87.6 30.9 59.77 11.1
2018 08 28 16:00 258.4 0.0 0.00 87.2 30.7 59.89 10.6
2018 08 28 17:00 258.2 0.0 0.00 86.5 30.3 59.75 10.7
2018 08 28 18:00 258.2 0.0 0.00 85.2 29.6 60.76 9.9
2018 08 28 19:00 259.5 0.0 0.00 82.5 28.1 65.75 8.4
2018 08 28 20:00 260.3 0.0 0.00 80.5 26.9 69.7 8.8
2018 08 28 21:00 260.9 0.0 0.00 79.1 26.1 73.42 7.2
2018 08 28 22:00 261.6 0.0 0.00 77.5 25.3 78.24 5.3
2018 08 28 23:00 262.0 0.0 0.00 76.4 24.7 81.2 5.7
2018 08 28 24:00 262.1 0.0 0.00 76.2 24.6 81 6.8
2018 08 29 1:00 262.0 0.0 0.00 76.4 24.7 80.7 6.7
2018 08 29 2:00 262.4 0.0 0.00 75.8 24.3 82.6 5.4
2018 08 29 3:00 262.9 0.0 0.00 75.3 24.1 83.7 4.5
2018 08 29 4:00 262.4 0.0 0.00 75.7 24.3 82.7 4.9
2018 08 29 5:00 262.4 0.0 0.00 75.5 24.2 82.9 6.1
2018 08 29 6:00 262.8 0.0 0.00 74.6 23.7 85.2 4.1
2018 08 29 7:00 263.3 0.0 0.00 74.0 23.4 88.9 0.6
2018 08 29 8:00 262.5 0.0 0.00 75.1 23.9 86.6 3.2
2018 08 29 9:00 261.9 0.0 0.00 76.4 24.6 82.5 6.4
2018 08 29 10:00 261.9 0.0 0.00 77.1 25.1 82.2 4.0
2018 08 29 11:00 262.1 0.0 0.00 77.9 25.5 81.3 4.3
2018 08 29 12:00 261.6 0.0 0.00 78.7 26.0 81.5 4.8
2018 08 29 13:00 269.9 0.0 1.02 77.1 25.0 86.9 4.9
2018 08 29 14:00 274.7 0.0 0.00 77.6 25.3 88.9 5.3
2018 08 29 15:00 261.0 0.0 0.00 78.4 25.8 81.3 7.8
2018 08 29 16:00 260.4 0.0 0.00 79.4 26.4 79.74 7.1
2018 08 29 17:00 260.6 0.0 0.00 78.0 25.6 84.7 8.0
2018 08 29 18:00 261.8 0.0 0.00 75.3 24.1 88.9 6.2
2018 08 29 19:00 264.5 0.0 0.00 73.4 23.0 92.3 4.6
2018 08 29 20:00 265.9 0.0 0.00 71.8 22.1 92.3 5.5
2018 08 29 21:00 265.8 0.0 0.00 70.9 21.6 92.6 6.2
2018 08 29 22:00 266.5 0.0 0.00 70.4 21.3 94.3 4.4
2018 08 29 23:00 266.4 0.0 0.00 70.7 21.5 94.2 5.7
2018 08 29 24:00 265.5 0.0 0.00 71.1 21.7 92.6 4.2
2018 08 30 1:00 265.9 0.0 0.00 70.5 21.4 92 5.3
2018 08 30 2:00 267.2 0.0 0.00 69.4 20.8 93.9 6.7
2018 08 30 3:00 267.3 0.0 0.00 69.0 20.5 94.4 7.0
2018 08 30 4:00 266.6 0.0 0.00 69.2 20.7 94.7 7.2
2018 08 30 5:00 266.5 0.0 0.00 69.3 20.7 95 6.5
2018 08 30 6:00 266.5 0.0 0.00 69.5 20.8 95.5 6.2
2018 08 30 7:00 266.5 0.0 0.00 69.8 21.0 96 6.9
2018 08 30 8:00 265.8 0.0 0.00 70.0 21.1 96.2 8.4
2018 08 30 9:00 263.7 0.0 0.00 71.5 22.0 88.6 5.8
2018 08 30 10:00 263.9 0.0 0.00 71.0 21.7 88.9 5.5
2018 08 30 11:00 Wet 459.1 1.1 27.94 68.2 20.1 95.6 11.1
2018 08 30 12:00 Wet 359.9 0.2 5.84 67.3 19.6 97.8 6.3
2018 08 30 13:00 Wet 329.4 0.1 1.27 66.9 19.4 93 15.7
2018 08 30 14:00 277.9 0.0 0.00 68.1 20.1 90.7 11.4
2018 08 30 15:00 Wet 331.9 0.1 3.05 67.6 19.8 91.3 7.7
2018 08 30 16:00 Wet 364.1 0.1 2.79 66.1 19.0 93.9 8.1
2018 08 30 17:00 Wet 313.7 0.0 0.76 67.8 19.9 83.4 12.5
2018 08 30 18:00 271.4 0.0 0.00 68.8 20.4 80.4 5.7
2018 08 30 19:00 264.8 0.0 0.00 67.3 19.6 89.3 1.6
2018 08 30 20:00 273.2 0.0 0.00 65.6 18.7 94 2.3
2018 08 30 21:00 278.2 0.0 0.00 64.8 18.3 95.2 4.1
2018 08 30 22:00 277.1 0.0 0.00 65.0 18.4 96.1 4.8
2018 08 30 23:00 280.9 0.0 0.00 65.0 18.3 96.9 3.5
2018 08 30 24:00 Wet 288.3 0.0 0.00 64.8 18.2 97.1 2.5
2018 08 31 1:00 Wet 295.2 0.0 0.00 64.9 18.3 97 3.5
2018 08 31 2:00 Wet 299.6 0.0 0.00 65.1 18.4 96.9 3.7
2018 08 31 3:00 Wet 295.6 0.0 0.00 65.6 18.6 95.6 3.9
2018 08 31 4:00 269.8 0.0 0.00 66.6 19.2 93.8 5.4
2018 08 31 5:00 266.6 0.0 0.00 66.7 19.3 93.5 6.0
2018 08 31 6:00 266.8 0.0 0.00 66.5 19.2 94 7.0
2018 08 31 7:00 265.0 0.0 0.00 67.8 19.9 93.2 6.6
2018 08 31 8:00 263.2 0.0 0.00 71.4 21.9 89.1 6.5
2018 08 31 9:00 262.4 0.0 0.00 75.3 24.0 81.8 9.1
2018 08 31 10:00 261.7 0.0 0.00 79.6 26.4 74.19 8.7
2018 08 31 11:00 260.9 0.0 0.00 82.4 28.0 70.8 8.6
2018 08 31 12:00 259.1 0.0 0.00 84.5 29.2 64.42 9.3
2018 08 31 13:00 258.8 0.0 0.00 86.0 30.0 61.62 8.4
2018 08 31 14:00 258.7 0.0 0.00 86.8 30.4 59.81 8.8
2018 08 31 15:00 258.5 0.0 0.00 86.7 30.4 59.74 8.4
2018 08 31 16:00 258.5 0.0 0.00 86.1 30.1 61.39 9.5
2018 08 31 17:00 258.3 0.0 0.00 85.6 29.8 62.45 7.9
2018 08 31 18:00 258.7 0.0 0.00 83.9 28.8 66.18 8.7
2018 08 31 19:00 260.2 0.0 0.00 81.1 27.3 71.5 5.9
2018 08 31 20:00 261.7 0.0 0.00 77.9 25.5 77.42 4.1
2018 08 31 21:00 262.7 0.0 0.00 75.7 24.3 82.4 3.6
2018 08 31 22:00 263.3 0.0 0.00 74.0 23.3 84.5 3.8
2018 08 31 23:00 263.3 0.0 0.00 73.9 23.3 84.8 4.3
2018 08 31 24:00 263.4 0.0 0.00 73.8 23.2 86 4.6
2018 09 01 1:00 266.0 0.0 0.00 72.0 22.2 90.5 2.8
2018 09 01 2:00 268.2 0.0 0.00 71.3 21.8 91.9 2.9
2018 09 01 3:00 270.4 0.0 0.00 70.9 21.6 93.7 4.0
2018 09 01 4:00 267.7 0.0 0.00 71.4 21.9 92.4 5.2
2018 09 01 5:00 264.9 0.0 0.00 72.2 22.3 89.7 6.5
2018 09 01 6:00 265.5 0.0 0.00 71.2 21.8 90.7 4.8
2018 09 01 7:00 263.8 0.0 0.00 71.8 22.1 89.3 4.8
2018 09 01 8:00 262.3 0.0 0.00 74.7 23.7 83.6 7.0
2018 09 01 9:00 261.7 0.0 0.00 78.1 25.6 76.08 8.4
2018 09 01 10:00 261.1 0.0 0.00 81.2 27.4 69.26 8.8
2018 09 01 11:00 259.9 0.0 0.00 83.4 28.6 65.64 8.5
2018 09 01 12:00 258.5 0.0 0.00 85.0 29.5 62.58 7.8
2018 09 01 13:00 258.5 0.0 0.00 85.5 29.7 61.36 6.5
2018 09 01 14:00 258.4 0.0 0.00 86.1 30.0 60.63 6.9
2018 09 01 15:00 258.4 0.0 0.00 86.1 30.1 60.04 7.6
2018 09 01 16:00 258.3 0.0 0.00 84.9 29.4 62.06 10.3
2018 09 01 17:00 258.5 0.0 0.00 83.7 28.7 62.58 8.7
2018 09 01 18:00 258.3 0.0 0.00 82.8 28.2 62.77 7.4
2018 09 01 19:00 259.9 0.0 0.00 79.5 26.4 68.98 6.2
2018 09 01 20:00 261.5 0.0 0.00 76.9 24.9 73.95 6.5
2018 09 01 21:00 261.7 0.0 0.00 76.0 24.4 76.23 6.8
2018 09 01 22:00 262.2 0.0 0.00 74.0 23.3 81.4 4.7
2018 09 01 23:00 263.1 0.0 0.00 72.3 22.4 86.2 4.2
2018 09 01 24:00 263.1 0.0 0.00 72.8 22.7 85.4 5.3
2018 09 02 1:00 265.5 0.0 0.00 71.9 22.1 87.6 2.3
2018 09 02 2:00 271.8 0.0 0.00 70.7 21.5 90.5 0.2
2018 09 02 3:00 282.3 0.0 0.00 69.1 20.6 94.7 0.5
2018 09 02 4:00 Wet 293.5 0.0 0.00 68.3 20.2 96.4 1.8
2018 09 02 5:00 Wet 305.2 0.0 0.00 68.3 20.2 97.2 2.5
2018 09 02 6:00 Wet 317.6 0.0 0.00 68.6 20.4 96.6 3.3
2018 09 02 7:00 Wet 310.0 0.0 0.00 69.6 20.9 95.4 3.0
2018 09 02 8:00 263.4 0.0 0.00 73.5 23.0 87.5 6.9
2018 09 02 9:00 261.7 0.0 0.00 76.1 24.5 78.27 11.1
2018 09 02 10:00 261.4 0.0 0.00 78.0 25.6 73.48 9.6
2018 09 02 11:00 260.4 0.0 0.00 78.9 26.1 72.05 7.1
2018 09 02 12:00 259.3 0.0 0.00 80.6 27.0 70.22 6.9
2018 09 02 13:00 259.5 0.0 0.00 80.7 27.1 70.55 7.0
2018 09 02 14:00 259.0 0.0 0.00 82.4 28.0 67.79 7.3
2018 09 02 15:00 259.0 0.0 0.00 82.5 28.1 68.06 9.1
2018 09 02 16:00 259.1 0.0 0.00 81.7 27.6 68.23 10.5
2018 09 02 17:00 259.3 0.0 0.00 80.4 26.9 69.41 9.4
2018 09 02 18:00 258.9 0.0 0.00 80.5 27.0 69.38 8.1
2018 09 02 19:00 261.0 0.0 0.00 77.7 25.4 76.85 4.6
2018 09 02 20:00 263.1 0.0 0.00 75.1 23.9 83.6 3.2
2018 09 02 21:00 262.4 0.0 0.00 75.0 23.9 79.89 5.4
2018 09 02 22:00 262.6 0.0 0.00 74.2 23.5 81.2 4.3
2018 09 02 23:00 263.0 0.0 0.00 74.0 23.3 82.7 5.2
2018 09 02 24:00 263.3 0.0 0.00 73.7 23.1 84.8 4.2
2018 09 03 1:00 264.6 0.0 0.00 72.6 22.6 88 3.6
2018 09 03 2:00 267.5 0.0 0.00 71.7 22.1 90.7 1.5
2018 09 03 3:00 277.2 0.0 0.00 70.1 21.1 95 0.6
2018 09 03 4:00 281.7 0.0 0.00 69.9 21.1 94.8 2.1
2018 09 03 5:00 281.8 0.0 0.00 69.9 21.0 95.1 0.4
2018 09 03 6:00 Wet 287.8 0.0 0.00 69.1 20.6 96.9 3.5
2018 09 03 7:00 Wet 285.2 0.0 0.00 69.5 20.9 96.4 3.0
2018 09 03 8:00 265.2 0.0 0.00 72.0 22.2 90.6 4.6
2018 09 03 9:00 261.9 0.0 0.00 75.8 24.3 81.3 7.4
2018 09 03 10:00 261.6 0.0 0.00 78.6 25.9 74.47 8.3
2018 09 03 11:00 260.4 0.0 0.00 80.7 27.0 69.84 8.6
2018 09 03 12:00 259.3 0.0 0.00 81.7 27.6 66.57 9.8
2018 09 03 13:00 258.9 0.0 0.00 83.0 28.3 64.18 10.5
2018 09 03 14:00 259.1 0.0 0.00 82.9 28.3 63.72 9.5
2018 09 03 15:00 258.6 0.0 0.00 84.1 28.9 60.33 10.8
2018 09 03 16:00 258.2 0.0 0.00 84.3 29.0 56.26 10.4
2018 09 03 17:00 258.0 0.0 0.00 83.7 28.7 56.07 9.3
2018 09 03 18:00 258.2 0.0 0.00 82.2 27.9 60.07 7.7
2018 09 03 19:00 259.7 0.0 0.00 79.5 26.4 65.32 6.1
2018 09 03 20:00 261.7 0.0 0.00 75.7 24.3 74.28 3.4
2018 09 03 21:00 263.1 0.0 0.00 74.0 23.4 79.19 2.9
2018 09 03 22:00 262.4 0.0 0.00 74.2 23.4 79.2 5.2
2018 09 03 23:00 262.8 0.0 0.00 72.8 22.7 82.4 4.8
2018 09 03 24:00 263.2 0.0 0.00 71.9 22.1 85.1 4.6
2018 09 04 1:00 263.1 0.0 0.00 72.4 22.4 84.9 5.7
2018 09 04 2:00 263.7 0.0 0.00 72.2 22.3 86.3 4.4
2018 09 04 3:00 264.1 0.0 0.00 71.7 22.1 88.1 4.5
2018 09 04 4:00 265.2 0.0 0.00 70.8 21.6 90.7 4.6
2018 09 04 5:00 265.4 0.0 0.00 70.8 21.6 90.7 5.0
2018 09 04 6:00 268.0 0.0 0.00 70.0 21.1 92.7 4.9
2018 09 04 7:00 264.0 0.0 0.00 71.0 21.6 90.8 5.8
2018 09 04 8:00 262.1 0.0 0.00 74.2 23.4 83.7 7.6
2018 09 04 9:00 261.6 0.0 0.00 77.6 25.3 75.32 10.9
2018 09 04 10:00 260.9 0.0 0.00 80.1 26.7 69.42 11.8
2018 09 04 11:00 259.8 0.0 0.00 81.3 27.4 67.69 10.7
2018 09 04 12:00 258.8 0.0 0.00 82.7 28.2 63.44 10.7
2018 09 04 13:00 258.5 0.0 0.00 83.7 28.7 60.7 10.6
2018 09 04 14:00 258.4 0.0 0.00 84.4 29.1 57.61 10.3
2018 09 04 15:00 258.2 0.0 0.00 84.8 29.4 57.54 9.5
2018 09 04 16:00 258.0 0.0 0.00 84.9 29.4 56.54 9.5
2018 09 04 17:00 258.0 0.0 0.00 83.9 28.9 57.17 8.2
2018 09 04 18:00 259.7 0.0 0.00 80.6 27.0 64.01 4.6
2018 09 04 19:00 261.0 0.0 0.00 77.9 25.5 71.4 3.3
2018 09 04 20:00 262.5 0.0 0.00 75.9 24.4 76.64 0.9
2018 09 04 21:00 261.8 0.0 0.00 75.7 24.3 76.51 3.1
2018 09 04 22:00 262.2 0.0 0.00 74.7 23.7 79.08 4.2
2018 09 04 23:00 262.1 0.0 0.00 74.4 23.6 79.05 4.9
2018 09 04 24:00 262.4 0.0 0.00 73.8 23.2 81.2 5.9
2018 09 05 1:00 262.7 0.0 0.00 73.4 23.0 82.8 4.7
2018 09 05 2:00 264.6 0.0 0.00 71.7 22.0 86.9 2.3
2018 09 05 3:00 268.5 0.0 0.00 70.9 21.6 88.5 0.9
2018 09 05 4:00 272.9 0.0 0.00 69.0 20.6 92.9 1.6
2018 09 05 5:00 281.3 0.0 0.00 68.2 20.1 95.1 0.7
2018 09 05 6:00 Wet 292.4 0.0 0.00 67.5 19.7 96.9 0.8
2018 09 05 7:00 281.4 0.0 0.00 69.7 20.9 93.2 2.6
2018 09 05 8:00 262.3 0.0 0.00 74.3 23.5 83.5 5.9
2018 09 05 9:00 261.5 0.0 0.00 77.4 25.2 76.19 6.2
2018 09 05 10:00 260.5 0.0 0.00 80.0 26.7 71.32 6.8
2018 09 05 11:00 259.6 0.0 0.00 81.9 27.7 66.19 8.0
2018 09 05 12:00 Wet 314.2 0.1 1.27 79.9 26.6 71.01 6.4
2018 09 05 13:00 Wet 377.3 0.2 3.81 75.9 24.4 81.7 6.0
2018 09 05 14:00 259.6 0.0 0.00 82.7 28.2 68.56 2.8
2018 09 05 15:00 260.5 0.0 0.00 80.8 27.1 75.1 4.9
2018 09 05 16:00 260.3 0.0 0.00 80.6 27.0 73.7 2.7
2018 09 05 17:00 Wet 433.3 0.9 23.37 73.9 23.3 86.4 8.2
2018 09 05 18:00 Wet 368.3 0.1 1.27 68.6 20.4 96.8 4.3
2018 09 05 19:00 Wet 371.2 0.1 3.05 68.7 20.4 97.6 0.2
2018 09 05 20:00 Wet 345.0 0.0 0.25 68.8 20.4 98.1 0.3
2018 09 05 21:00 Wet 323.2 0.0 0.00 69.0 20.6 98.2 0.1
2018 09 05 22:00 Wet 322.8 0.0 0.00 69.0 20.5 98.7 0.1
2018 09 05 23:00 Wet 319.2 0.0 0.00 69.0 20.6 98.9 0.0
2018 09 05 24:00 Wet 321.0 0.0 0.00 68.8 20.5 99.2 0.0
2018 09 06 1:00 Wet 320.7 0.0 0.00 68.8 20.4 99.2 0.1
2018 09 06 2:00 Wet 325.9 0.0 0.00 68.5 20.3 99.3 0.3
2018 09 06 3:00 Wet 328.7 0.0 0.00 68.2 20.1 99.3 0.8
2018 09 06 4:00 Wet 326.0 0.0 0.25 68.2 20.1 98.7 0.0
2018 09 06 5:00 Wet 327.5 0.0 0.00 67.4 19.7 98.8 0.0
2018 09 06 6:00 Wet 327.1 0.0 0.00 66.9 19.4 98.9 0.1
2018 09 06 7:00 Wet 306.8 0.0 0.00 67.1 19.5 98.7 0.3
2018 09 06 8:00 282.3 0.0 0.00 68.7 20.4 97.4 2.2
2018 09 06 9:00 262.5 0.0 0.00 72.6 22.6 89.7 4.4
2018 09 06 10:00 262.0 0.0 0.00 74.5 23.6 85.9 4.7
2018 09 06 11:00 260.6 0.0 0.00 77.3 25.2 79.37 5.0
2018 09 06 12:00 259.7 0.0 0.00 78.3 25.7 75.87 4.5
2018 09 06 13:00 259.0 0.0 0.00 80.8 27.1 70.32 4.6
2018 09 06 14:00 259.0 0.0 0.00 81.3 27.4 68.27 3.5
2018 09 06 15:00 258.2 0.0 0.00 83.0 28.3 65.11 4.7
2018 09 06 16:00 258.8 0.0 0.00 82.3 28.0 66.45 5.9
2018 09 06 17:00 260.2 0.0 0.00 79.7 26.5 78.02 6.3
2018 09 06 18:00 260.6 0.0 0.00 79.0 26.1 80.2 7.8
2018 09 06 19:00 Wet 298.2 0.0 0.51 74.8 23.8 91.7 6.2
2018 09 06 20:00 Wet 312.4 0.0 1.02 73.2 22.9 94.8 6.0
2018 09 06 21:00 Wet 288.4 0.0 0.00 72.8 22.7 95.5 5.9
2018 09 06 22:00 Wet 285.7 0.0 0.00 72.3 22.4 96.3 3.9
2018 09 06 23:00 Wet 285.9 0.0 0.00 72.1 22.3 96.5 3.1
2018 09 06 24:00 Wet 286.9 0.0 0.00 72.1 22.3 96.8 3.0
2018 09 07 1:00 Wet 285.4 0.0 0.00 72.0 22.2 95.8 4.5
2018 09 07 2:00 Wet 318.2 0.1 1.78 70.7 21.5 97 3.6
2018 09 07 3:00 Wet 317.9 0.0 0.00 70.4 21.3 98.4 2.1
2018 09 07 4:00 Wet 315.4 0.0 0.00 70.7 21.5 98.4 1.2
2018 09 07 5:00 Wet 296.9 0.0 0.00 70.8 21.6 98.8 1.4
2018 09 07 6:00 Wet 286.7 0.0 0.00 71.0 21.7 97.7 3.5
2018 09 07 7:00 274.4 0.0 0.00 71.1 21.7 96.9 4.0
2018 09 07 8:00 268.5 0.0 0.00 71.5 21.9 96 3.4
2018 09 07 9:00 265.0 0.0 0.00 72.1 22.3 94.6 2.9
2018 09 07 10:00 264.1 0.0 0.00 72.7 22.6 92.1 4.1
2018 09 07 11:00 263.0 0.0 0.00 74.0 23.3 89.8 4.3
2018 09 07 12:00 262.4 0.0 0.00 75.4 24.1 86.4 4.2
2018 09 07 13:00 261.4 0.0 0.00 77.1 25.1 81.4 4.7
2018 09 07 14:00 261.3 0.0 0.25 77.7 25.4 79.71 5.6
2018 09 07 15:00 261.7 0.0 0.00 77.6 25.4 80.1 4.3
2018 09 07 16:00 262.0 0.0 0.00 76.9 24.9 82.9 4.9
2018 09 07 17:00 263.1 0.0 0.00 74.7 23.7 87.2 6.4
2018 09 07 18:00 267.7 0.0 0.00 72.7 22.6 90.7 8.4
2018 09 07 19:00 Wet 371.2 0.2 3.81 69.7 21.0 97.2 5.0
2018 09 07 20:00 Wet 371.3 0.1 2.29 69.0 20.5 97.8 5.8
2018 09 07 21:00 Wet 288.8 0.0 0.25 68.6 20.4 96.6 6.0
2018 09 07 22:00 270.4 0.0 0.00 68.3 20.2 95.9 5.4
2018 09 07 23:00 267.0 0.0 0.00 67.7 19.8 96.4 5.7
2018 09 07 24:00 267.2 0.0 0.00 67.5 19.7 97.3 4.6
2018 09 08 1:00 269.0 0.0 0.00 67.5 19.7 97.8 4.3
2018 09 08 2:00 273.4 0.0 0.00 67.4 19.7 98.3 4.5
2018 09 08 3:00 Wet 350.3 0.0 0.00 67.2 19.5 98.9 4.6
2018 09 08 4:00 Wet 356.6 0.0 0.00 66.8 19.3 98.9 5.4
2018 09 08 5:00 Wet 337.3 0.0 0.00 66.7 19.3 98.3 3.2
2018 09 08 6:00 Wet 400.9 0.1 2.54 66.7 19.3 98.5 3.2
2018 09 08 7:00 Wet 460.3 0.5 12.45 66.5 19.2 98.9 3.7
2018 09 08 8:00 Wet 407.7 0.1 3.30 66.7 19.3 98.7 4.5
2018 09 08 9:00 Wet 414.6 0.0 0.76 65.5 18.6 97.1 7.5
2018 09 08 10:00 Wet 385.2 0.1 1.27 65.3 18.5 96.8 6.1
2018 09 08 11:00 275.7 0.0 0.00 65.5 18.6 93.3 8.0
2018 09 08 12:00 264.1 0.0 0.00 65.2 18.4 91.5 7.8
2018 09 08 13:00 263.6 0.0 0.00 65.6 18.7 89.5 8.3
2018 09 08 14:00 263.5 0.0 0.00 65.9 18.8 90.6 7.3
2018 09 08 15:00 265.0 0.0 0.00 65.5 18.6 91.8 7.3
2018 09 08 16:00 265.8 0.0 0.00 65.4 18.6 93.7 7.3
2018 09 08 17:00 Wet 306.0 0.0 0.00 64.4 18.0 94.2 9.4
2018 09 08 18:00 Wet 289.0 0.0 0.00 63.0 17.2 93.6 9.0
2018 09 08 19:00 269.9 0.0 0.00 62.3 16.8 93.8 8.3
2018 09 08 20:00 265.1 0.0 0.00 62.2 16.8 92.3 8.6
2018 09 08 21:00 265.4 0.0 0.00 62.1 16.7 92.7 8.4
2018 09 08 22:00 265.6 0.0 0.00 61.9 16.6 93.7 8.0
2018 09 08 23:00 270.5 0.0 0.00 61.5 16.4 95.6 6.6
2018 09 08 24:00 Wet 336.0 0.0 0.25 60.9 16.1 97.9 6.1
2018 09 09 1:00 Wet 342.4 0.0 0.00 60.5 15.8 98.5 5.8
2018 09 09 2:00 Wet 335.2 0.0 0.00 60.5 15.8 98.5 4.9
2018 09 09 3:00 Wet 321.4 0.0 0.25 60.5 15.8 98.1 5.1
2018 09 09 4:00 Wet 306.0 0.0 0.00 60.5 15.9 97.9 4.2
2018 09 09 5:00 Wet 308.4 0.0 0.00 60.4 15.8 98.1 4.4
2018 09 09 6:00 Wet 336.3 0.0 0.00 60.0 15.6 98.4 4.9
2018 09 09 7:00 Wet 336.3 0.0 0.00 60.0 15.5 98.2 5.0
2018 09 09 8:00 Wet 313.7 0.0 0.25 60.2 15.7 97.5 5.6
2018 09 09 9:00 Wet 292.6 0.0 0.00 60.7 15.9 94 6.7
2018 09 09 10:00 272.1 0.0 0.00 60.9 16.0 93.6 5.8
2018 09 09 11:00 264.3 0.0 0.00 61.8 16.5 91.2 5.7
2018 09 09 12:00 263.7 0.0 0.00 62.5 16.9 88.3 5.4
2018 09 09 13:00 263.4 0.0 0.00 62.4 16.9 87.1 5.4
2018 09 09 14:00 264.3 0.0 0.00 61.5 16.4 91.2 6.4
2018 09 09 15:00 263.0 0.0 0.00 63.1 17.3 86.3 5.2
2018 09 09 16:00 263.2 0.0 0.00 63.6 17.5 84.5 5.2
2018 09 09 17:00 263.7 0.0 0.00 62.8 17.1 87 4.7
2018 09 09 18:00 263.8 0.0 0.00 62.7 17.1 88.3 2.6
2018 09 09 19:00 264.4 0.0 0.00 62.5 17.0 89.7 1.8
2018 09 09 20:00 264.6 0.0 0.00 62.5 16.9 90.6 1.9
2018 09 09 21:00 265.3 0.0 0.00 62.3 16.8 91.2 0.9
2018 09 09 22:00 266.5 0.0 0.00 62.0 16.6 93.1 0.0
2018 09 09 23:00 266.2 0.0 0.00 61.9 16.6 94.2 0.0
2018 09 09 24:00 267.9 0.0 0.00 61.7 16.5 95.8 0.0
2018 09 10 1:00 269.0 0.0 0.00 61.8 16.5 95.8 0.0
2018 09 10 2:00 271.9 0.0 0.00 61.6 16.5 96.3 0.0
2018 09 10 3:00 276.5 0.0 0.00 61.6 16.4 97 0.0
2018 09 10 4:00 283.5 0.0 0.00 61.4 16.3 97.2 0.0
2018 09 10 5:00 Wet 293.9 0.0 0.00 60.5 15.8 98.1 0.0
2018 09 10 6:00 Wet 308.3 0.0 0.00 59.3 15.2 98.9 0.0
2018 09 10 7:00 Wet 309.2 0.0 0.00 59.6 15.3 99.1 0.1
2018 09 10 8:00 264.6 0.0 0.00 63.0 17.3 90 1.0
2018 09 10 9:00 262.6 0.0 0.00 66.5 19.2 78.72 3.0
2018 09 10 10:00 262.1 0.0 0.00 69.0 20.5 72.75 3.4
2018 09 10 11:00 260.6 0.0 0.00 71.3 21.9 66.66 2.9
2018 09 10 12:00 257.2 0.0 0.00 73.2 22.9 62.2 2.8
2018 09 10 13:00 258.1 0.0 0.00 73.2 22.9 59.95 3.3
2018 09 10 14:00 257.7 0.0 0.00 74.7 23.7 56.46 4.4
2018 09 10 15:00 257.7 0.0 0.00 75.5 24.1 55.08 4.8
2018 09 10 16:00 257.9 0.0 0.00 75.7 24.3 54.22 3.8
2018 09 10 17:00 258.0 0.0 0.00 75.3 24.1 54.42 4.0
2018 09 10 18:00 258.4 0.0 0.00 74.4 23.5 58.4 2.5
2018 09 10 19:00 262.3 0.0 0.00 71.1 21.7 67.72 0.1
2018 09 10 20:00 274.6 0.0 0.00 66.6 19.2 81.8 0.0
2018 09 10 21:00 Wet 288.5 0.0 0.00 63.8 17.6 89.6 0.0
2018 09 10 22:00 Wet 301.0 0.0 0.00 61.4 16.3 97.1 0.2
2018 09 10 23:00 Wet 316.5 0.0 0.00 60.5 15.8 98.6 0.1
2018 09 10 24:00 Wet 335.7 0.0 0.00 59.3 15.2 98.8 0.2
2018 09 11 1:00 Wet 362.5 0.0 0.00 58.7 14.8 98.6 0.0
2018 09 11 2:00 Wet 375.9 0.0 0.00 58.5 14.7 98.9 0.0
2018 09 11 3:00 Wet 390.5 0.0 0.00 57.4 14.1 99 0.0
2018 09 11 4:00 Wet 404.4 0.0 0.00 56.8 13.8 99.3 0.0
2018 09 11 5:00 Wet 416.3 0.0 0.00 56.1 13.4 99.4 0.0
2018 09 11 6:00 Wet 427.4 0.0 0.00 55.0 12.8 99.5 0.0
2018 09 11 7:00 Wet 424.7 0.0 0.00 56.4 13.6 99.8 0.8
2018 09 11 8:00 Wet 384.2 0.0 0.00 63.0 17.2 94.1 2.6
2018 09 11 9:00 Wet 314.4 0.0 0.00 68.9 20.5 78.43 5.4
2018 09 11 10:00 263.5 0.0 0.00 71.7 22.1 67.75 7.8
2018 09 11 11:00 260.7 0.0 0.00 72.0 22.2 66.31 7.4
2018 09 11 12:00 258.5 0.0 0.00 73.7 23.2 62.89 7.1
2018 09 11 13:00 258.6 0.0 0.00 74.3 23.5 61.33 5.8
2018 09 11 14:00 257.8 0.0 0.00 76.1 24.5 55.9 6.1
2018 09 11 15:00 257.7 0.0 0.00 77.1 25.1 53.34 7.2
2018 09 11 16:00 258.1 0.0 0.00 76.6 24.8 53.43 5.7
2018 09 11 17:00 258.2 0.0 0.00 76.0 24.4 55.37 6.2
2018 09 11 18:00 258.6 0.0 0.00 73.9 23.3 60.05 4.9
2018 09 11 19:00 262.0 0.0 0.00 69.5 20.9 70.64 3.0
2018 09 11 20:00 272.1 0.0 0.00 65.5 18.6 80.3 1.8
2018 09 11 21:00 Wet 285.0 0.0 0.00 63.3 17.4 85.7 2.0
2018 09 11 22:00 Wet 296.4 0.0 0.00 62.2 16.8 89.1 1.2
2018 09 11 23:00 Wet 307.8 0.0 0.00 62.3 16.8 87.7 1.8
2018 09 11 24:00 Wet 297.8 0.0 0.00 63.1 17.3 85.8 6.1
2018 09 12 1:00 Wet 284.4 0.0 0.00 61.1 16.2 90.7 3.9
2018 09 12 2:00 Wet 292.9 0.0 0.00 58.8 14.9 95.5 1.7
2018 09 12 3:00 Wet 304.3 0.0 0.00 58.0 14.5 97.3 2.1
2018 09 12 4:00 Wet 317.5 0.0 0.00 58.0 14.4 98.2 0.8
2018 09 12 5:00 Wet 336.9 0.0 0.00 57.7 14.3 98.5 0.4
2018 09 12 6:00 Wet 350.7 0.0 0.00 57.4 14.1 99 0.0
2018 09 12 7:00 Wet 358.5 0.0 0.00 58.0 14.5 99.3 1.3
2018 09 12 8:00 Wet 315.2 0.0 0.00 62.9 17.1 93.5 3.9
2018 09 12 9:00 264.1 0.0 0.00 67.7 19.8 83.1 3.8
2018 09 12 10:00 261.8 0.0 0.00 71.5 22.0 73.91 2.7
2018 09 12 11:00 259.8 0.0 0.00 73.7 23.2 66.52 1.4
2018 09 12 12:00 258.9 0.0 0.00 74.2 23.5 65.79 3.3
2018 09 12 13:00 258.9 0.0 0.00 75.3 24.1 64.71 4.1
2018 09 12 14:00 258.6 0.0 0.00 76.5 24.7 63.13 4.8
2018 09 12 15:00 258.7 0.0 0.00 77.0 25.0 63.07 6.1
2018 09 12 16:00 258.6 0.0 0.00 77.3 25.2 63.41 6.0
2018 09 12 17:00 258.3 0.0 0.00 77.3 25.2 62.74 6.2
2018 09 12 18:00 258.7 0.0 0.00 75.6 24.2 68.34 4.4
2018 09 12 19:00 261.4 0.0 0.00 72.4 22.5 76.9 1.1
2018 09 12 20:00 263.1 0.0 0.00 69.1 20.6 83.4 2.9
2018 09 12 21:00 263.1 0.0 0.00 68.6 20.4 85.1 5.8
2018 09 12 22:00 264.0 0.0 0.00 67.6 19.8 88.7 5.0
2018 09 12 23:00 266.1 0.0 0.00 66.4 19.1 92.3 3.7
2018 09 12 24:00 269.9 0.0 0.00 65.1 18.4 95.4 1.5
2018 09 13 1:00 279.6 0.0 0.00 64.8 18.2 96.8 0.6
2018 09 13 2:00 270.8 0.0 0.00 65.3 18.5 96.3 1.1
2018 09 13 3:00 Wet 287.6 0.0 0.00 64.2 17.9 97 0.5
2018 09 13 4:00 Wet 308.4 0.0 0.00 63.7 17.6 98.6 0.2
2018 09 13 5:00 Wet 326.1 0.0 0.00 63.3 17.4 99.1 1.0
2018 09 13 6:00 Wet 316.0 0.0 0.00 64.8 18.2 97.5 2.7
2018 09 13 7:00 Wet 294.2 0.0 0.00 65.3 18.5 96 1.6
2018 09 13 8:00 264.7 0.0 0.00 68.0 20.0 91.9 5.0
2018 09 13 9:00 262.7 0.0 0.00 70.2 21.2 87.2 4.9
2018 09 13 10:00 261.6 0.0 0.00 74.3 23.5 79.14 4.3
2018 09 13 11:00 260.8 0.0 0.00 76.1 24.5 76.11 3.5
2018 09 13 12:00 259.6 0.0 0.00 77.9 25.5 71.88 4.1
2018 09 13 13:00 258.7 0.0 0.00 80.0 26.7 67.16 3.8
2018 09 13 14:00 258.7 0.0 0.00 80.7 27.1 64.82 4.3
2018 09 13 15:00 258.8 0.0 0.00 81.4 27.4 62.44 4.6
2018 09 13 16:00 258.2 0.0 0.00 82.0 27.8 61.31 4.6
2018 09 13 17:00 258.4 0.0 0.00 81.5 27.5 61.24 3.6
2018 09 13 18:00 258.8 0.0 0.00 80.6 27.0 63.95 2.7
2018 09 13 19:00 261.1 0.0 0.00 77.1 25.1 71.81 0.6
2018 09 13 20:00 263.7 0.0 0.00 73.1 22.8 83.8 0.1
2018 09 13 21:00 266.3 0.0 0.00 70.2 21.2 93 0.0
2018 09 13 22:00 266.5 0.0 0.00 69.7 21.0 92.2 2.3
2018 09 13 23:00 267.7 0.0 0.00 68.9 20.5 92.3 2.2
2018 09 13 24:00 265.8 0.0 0.00 68.4 20.2 92.9 0.5
2018 09 14 1:00 269.8 0.0 0.00 67.0 19.5 95.4 1.2
2018 09 14 2:00 282.8 0.0 0.00 66.7 19.3 96.6 0.2
2018 09 14 3:00 Wet 301.9 0.0 0.00 65.9 18.8 98 0.4
2018 09 14 4:00 Wet 322.4 0.0 0.00 65.3 18.5 98.9 0.7
2018 09 14 5:00 Wet 347.6 0.0 0.00 64.7 18.2 99.2 0.2
2018 09 14 6:00 Wet 362.1 0.0 0.00 64.2 17.9 99.4 0.2
2018 09 14 7:00 Wet 353.3 0.0 0.00 64.8 18.2 99.5 0.4
2018 09 14 8:00 276.1 0.0 0.00 69.3 20.7 92.3 4.5
2018 09 14 9:00 262.2 0.0 0.00 75.1 23.9 81.2 4.0
2018 09 14 10:00 260.7 0.0 0.00 80.0 26.6 70.13 2.0
2018 09 14 11:00 259.0 0.0 0.00 81.9 27.7 62.49 2.8
2018 09 14 12:00 257.1 0.0 0.00 83.2 28.4 60.83 2.3
2018 09 14 13:00 257.1 0.0 0.00 83.9 28.8 58.09 3.6
2018 09 14 14:00 256.8 0.0 0.00 85.1 29.5 53.48 4.0
2018 09 14 15:00 256.6 0.0 0.00 85.6 29.8 51.34 3.4
2018 09 14 16:00 256.2 0.0 0.00 85.7 29.9 52.3 3.4
2018 09 14 17:00 256.1 0.0 0.00 85.4 29.6 54.13 2.8
2018 09 14 18:00 256.5 0.0 0.00 83.9 28.8 58.32 0.6
2018 09 14 19:00 260.0 0.0 0.00 80.2 26.8 67.23 0.0
2018 09 14 20:00 263.1 0.0 0.00 75.2 24.0 82.2 0.3
2018 09 14 21:00 265.9 0.0 0.00 72.1 22.3 90.6 0.4
2018 09 14 22:00 267.3 0.0 0.00 70.8 21.5 92.8 1.0
2018 09 14 23:00 268.3 0.0 0.00 70.2 21.2 92.3 0.3
2018 09 14 24:00 279.6 0.0 0.00 68.4 20.2 95.3 0.2
2018 09 15 1:00 Wet 292.9 0.0 0.00 67.5 19.7 96.1 0.0
2018 09 15 2:00 Wet 306.9 0.0 0.00 66.2 19.0 97.8 0.0
2018 09 15 3:00 Wet 324.1 0.0 0.00 65.4 18.5 98.6 0.3
2018 09 15 4:00 Wet 344.2 0.0 0.00 64.8 18.2 99 0.2
2018 09 15 5:00 Wet 359.3 0.0 0.00 64.8 18.2 98.5 0.0
2018 09 15 6:00 Wet 372.7 0.0 0.00 63.4 17.4 98.8 0.6
2018 09 15 7:00 Wet 364.9 0.0 0.00 64.2 17.9 98.5 0.0
2018 09 15 8:00 277.9 0.0 0.00 69.1 20.6 90.7 1.8
2018 09 15 9:00 261.8 0.0 0.00 75.4 24.1 78.21 2.1
2018 09 15 10:00 260.1 0.0 0.00 81.1 27.3 64.53 2.8
2018 09 15 11:00 258.7 0.0 0.00 82.6 28.1 56.11 5.8
2018 09 15 12:00 257.5 0.0 0.00 82.9 28.3 57.3 5.0
2018 09 15 13:00 257.4 0.0 0.00 83.2 28.4 57.01 4.4
2018 09 15 14:00 257.4 0.0 0.00 83.7 28.7 54.28 5.3
2018 09 15 15:00 257.4 0.0 0.00 83.9 28.8 54.9 6.0
2018 09 15 16:00 257.0 0.0 0.00 84.1 29.0 53.44 6.2
2018 09 15 17:00 256.8 0.0 0.00 83.3 28.5 54.9 5.3
2018 09 15 18:00 257.4 0.0 0.00 81.5 27.5 60.34 3.5
2018 09 15 19:00 260.0 0.0 0.00 78.1 25.6 67.69 2.2
2018 09 15 20:00 261.9 0.0 0.00 75.0 23.9 75.71 0.5
2018 09 15 21:00 264.5 0.0 0.00 71.8 22.1 83.7 1.3
2018 09 15 22:00 266.5 0.0 0.00 70.5 21.4 86 0.8
2018 09 15 23:00 267.9 0.0 0.00 68.1 20.0 92.8 0.0
2018 09 15 24:00 274.9 0.0 0.00 66.5 19.1 96.7 0.0
2018 09 16 1:00 Wet 289.6 0.0 0.00 65.6 18.7 97.8 0.0
2018 09 16 2:00 Wet 306.8 0.0 0.00 64.6 18.1 98.1 0.4
2018 09 16 3:00 Wet 329.0 0.0 0.00 64.2 17.9 97.7 0.1
2018 09 16 4:00 Wet 353.0 0.0 0.00 63.1 17.3 98.3 0.4
2018 09 16 5:00 Wet 368.1 0.0 0.00 61.8 16.6 99 0.6
2018 09 16 6:00 Wet 381.4 0.0 0.00 61.8 16.5 99 0.0
2018 09 16 7:00 Wet 375.6 0.0 0.00 61.5 16.4 99 0.0
2018 09 16 8:00 281.0 0.0 0.00 66.8 19.3 92.1 0.6
2018 09 16 9:00 261.8 0.0 0.00 74.3 23.5 76.62 1.2
2018 09 16 10:00 260.3 0.0 0.00 79.1 26.2 64.71 3.4
2018 09 16 11:00 258.5 0.0 0.00 81.6 27.5 54.5 3.9
2018 09 16 12:00 256.7 0.0 0.00 82.7 28.1 52.6 4.3
2018 09 16 13:00 256.5 0.0 0.00 83.6 28.6 50.65 4.8
2018 09 16 14:00 256.5 0.0 0.00 84.0 28.9 49.98 4.1
2018 09 16 15:00 256.9 0.0 0.00 84.2 29.0 51.19 4.1
2018 09 16 16:00 256.2 0.0 0.00 84.6 29.2 49.3 3.3
2018 09 16 17:00 256.0 0.0 0.00 84.6 29.2 50.62 1.1
2018 09 16 18:00 256.8 0.0 0.00 83.7 28.7 55.28 1.2
2018 09 16 19:00 259.6 0.0 0.00 79.1 26.1 64.18 0.0
2018 09 16 20:00 262.3 0.0 0.00 74.4 23.6 77.26 0.0
2018 09 16 21:00 265.8 0.0 0.00 71.0 21.7 87.9 0.0
2018 09 16 22:00 270.0 0.0 0.00 68.4 20.2 94.7 0.0
2018 09 16 23:00 Wet 286.3 0.0 0.00 66.9 19.4 96.6 0.0
2018 09 16 24:00 Wet 298.9 0.0 0.00 65.8 18.8 96.7 0.1
2018 09 17 1:00 Wet 309.7 0.0 0.00 65.2 18.5 97.8 0.0
2018 09 17 2:00 Wet 320.5 0.0 0.00 64.4 18.0 98 0.0
2018 09 17 3:00 Wet 339.7 0.0 0.00 63.7 17.6 98.4 0.5
2018 09 17 4:00 Wet 362.5 0.0 0.00 62.8 17.1 98.8 0.1
2018 09 17 5:00 Wet 378.6 0.0 0.00 62.6 17.0 99 0.0
2018 09 17 6:00 Wet 390.6 0.0 0.00 62.2 16.8 99 0.0
2018 09 17 7:00 Wet 385.9 0.0 0.00 62.6 17.0 99.1 0.0
2018 09 17 8:00 Wet 296.9 0.0 0.00 68.4 20.2 92.2 0.0
2018 09 17 9:00 262.4 0.0 0.00 75.9 24.4 81 0.1
2018 09 17 10:00 260.4 0.0 0.00 80.9 27.2 65.99 1.5
2018 09 17 11:00 258.3 0.0 0.00 83.3 28.5 53.87 1.9
2018 09 17 12:00 255.5 0.0 0.00 85.0 29.4 44.32 2.2
2018 09 17 13:00 255.4 0.0 0.00 85.9 29.9 43.89 3.1
2018 09 17 14:00 255.6 0.0 0.00 86.6 30.4 42.72 3.0
2018 09 17 15:00 255.5 0.0 0.00 87.4 30.8 41.17 2.4
2018 09 17 16:00 255.0 0.0 0.00 87.1 30.6 42.6 1.1
2018 09 17 17:00 255.3 0.0 0.00 86.8 30.5 47.18 1.8
2018 09 17 18:00 256.6 0.0 0.00 85.2 29.5 53.01 0.7
2018 09 17 19:00 259.9 0.0 0.00 79.9 26.6 66.16 0.1
2018 09 17 20:00 262.1 0.0 0.00 75.7 24.3 78.41 0.1
2018 09 17 21:00 262.7 0.0 0.00 72.9 22.7 86.9 0.2
2018 09 17 22:00 263.5 0.0 0.00 72.5 22.5 89.8 0.0
2018 09 17 23:00 264.1 0.0 0.00 72.4 22.4 89.3 0.0
2018 09 17 24:00 266.9 0.0 0.00 70.7 21.5 93 0.1
2018 09 18 1:00 265.5 0.0 0.00 70.6 21.4 85.6 0.0
2018 09 18 2:00 265.3 0.0 0.00 69.7 20.9 84.2 0.2
2018 09 18 3:00 267.8 0.0 0.00 67.5 19.7 93.8 0.3
2018 09 18 4:00 267.9 0.0 0.00 66.8 19.3 95.3 0.0
2018 09 18 5:00 267.9 0.0 0.00 66.4 19.1 94.4 0.9
2018 09 18 6:00 268.2 0.0 0.00 65.5 18.6 95.5 1.0
2018 09 18 7:00 266.2 0.0 0.00 66.2 19.0 94.8 1.3
2018 09 18 8:00 262.3 0.0 0.00 72.5 22.5 83.4 1.6
2018 09 18 9:00 260.7 0.0 0.00 79.6 26.4 65.01 6.7
2018 09 18 10:00 259.9 0.0 0.00 82.1 27.8 65.06 6.7
2018 09 18 11:00 259.5 0.0 0.00 82.9 28.3 65.1 6.1
2018 09 18 12:00 257.9 0.0 0.00 84.6 29.2 61.57 6.3
2018 09 18 13:00 257.5 0.0 0.00 86.6 30.4 57.5 7.6
2018 09 18 14:00 257.6 0.0 0.00 87.5 30.8 54.9 7.7
2018 09 18 15:00 257.4 0.0 0.00 87.8 31.0 53.43 5.3
2018 09 18 16:00 257.0 0.0 0.00 87.9 31.1 53.21 4.6
2018 09 18 17:00 256.9 0.0 0.00 87.5 30.8 54.43 4.2
2018 09 18 18:00 257.6 0.0 0.00 86.1 30.0 59.25 1.8
2018 09 18 19:00 260.6 0.0 0.00 82.1 27.8 70.21 0.9
2018 09 18 20:00 262.2 0.0 0.00 77.3 25.2 81.9 1.9
2018 09 18 21:00 263.6 0.0 0.00 75.7 24.3 85.7 0.2
2018 09 18 22:00 264.9 0.0 0.00 74.7 23.7 87.6 0.4
2018 09 18 23:00 264.7 0.0 0.00 73.5 23.1 87.4 2.1
2018 09 18 24:00 266.8 0.0 0.00 71.9 22.2 91.7 0.4
2018 09 19 1:00 267.8 0.0 0.00 70.9 21.6 92.7 0.0
2018 09 19 2:00 264.1 0.0 0.00 73.3 23.0 85.1 3.8
2018 09 19 3:00 264.6 0.0 0.00 72.7 22.6 86.8 1.7
2018 09 19 4:00 267.5 0.0 0.00 71.3 21.8 90.6 0.2
2018 09 19 5:00 267.4 0.0 0.00 70.0 21.1 94.7 0.2
2018 09 19 6:00 272.6 0.0 0.00 68.9 20.5 96.8 0.0
2018 09 19 7:00 269.6 0.0 0.00 69.2 20.7 96.3 0.0
2018 09 19 8:00 262.5 0.0 0.00 76.1 24.5 82.6 4.3
2018 09 19 9:00 261.5 0.0 0.00 80.2 26.8 72.4 5.9
2018 09 19 10:00 260.2 0.0 0.00 83.9 28.8 63.26 6.2
2018 09 19 11:00 258.9 0.0 0.00 86.1 30.0 58.25 6.2
2018 09 19 12:00 258.0 0.0 0.00 86.4 30.2 53.75 6.8
2018 09 19 13:00 257.4 0.0 0.00 87.8 31.0 52.52 6.1
2018 09 19 14:00 257.1 0.0 0.00 88.7 31.5 51.26 6.0
2018 09 19 15:00 256.9 0.0 0.00 89.5 32.0 49.2 4.9
2018 09 19 16:00 256.1 0.0 0.00 90.1 32.3 48.1 3.6
2018 09 19 17:00 256.3 0.0 0.00 89.6 32.0 47.31 3.9
2018 09 19 18:00 257.1 0.0 0.00 87.1 30.6 54.25 2.3
2018 09 19 19:00 260.0 0.0 0.00 81.9 27.7 67.41 3.5
2018 09 19 20:00 261.3 0.0 0.00 78.8 26.0 73.64 3.2
2018 09 19 21:00 261.7 0.0 0.00 77.2 25.1 77.56 4.3
2018 09 19 22:00 261.7 0.0 0.00 76.4 24.7 77.97 4.4
2018 09 19 23:00 261.7 0.0 0.00 76.0 24.4 76.1 4.2
2018 09 19 24:00 261.7 0.0 0.00 75.7 24.3 77.47 4.9
2018 09 20 1:00 261.7 0.0 0.00 76.0 24.4 78.83 5.0
2018 09 20 2:00 262.3 0.0 0.00 74.8 23.8 82.4 3.8
2018 09 20 3:00 263.1 0.0 0.00 73.5 23.0 86 3.5
2018 09 20 4:00 263.1 0.0 0.00 74.2 23.4 84.7 4.7
2018 09 20 5:00 263.1 0.0 0.00 74.4 23.6 83.9 5.0
2018 09 20 6:00 263.1 0.0 0.00 74.1 23.4 84 2.6
2018 09 20 7:00 263.1 0.0 0.00 73.8 23.2 84.9 4.1
2018 09 20 8:00 261.7 0.0 0.00 77.3 25.1 77.91 5.7
2018 09 20 9:00 260.9 0.0 0.00 80.5 27.0 72.28 7.2
2018 09 20 10:00 260.1 0.0 0.00 83.2 28.4 65.74 9.1
2018 09 20 11:00 259.0 0.0 0.00 84.9 29.4 61.32 8.0
2018 09 20 12:00 257.9 0.0 0.00 86.7 30.4 56.85 10.1
2018 09 20 13:00 257.5 0.0 0.00 88.1 31.1 52.86 10.3
2018 09 20 14:00 257.3 0.0 0.00 88.7 31.5 50.4 10.9
2018 09 20 15:00 257.1 0.0 0.00 89.0 31.7 49 10.1
2018 09 20 16:00 257.1 0.0 0.00 89.1 31.7 47.73 10.4
2018 09 20 17:00 257.2 0.0 0.00 87.8 31.0 48.57 8.8
2018 09 20 18:00 257.9 0.0 0.00 85.0 29.4 54.17 5.9
2018 09 20 19:00 259.2 0.0 0.00 81.8 27.7 59.86 6.3
2018 09 20 20:00 259.6 0.0 0.00 80.2 26.8 63.99 7.3
2018 09 20 21:00 260.0 0.0 0.00 78.3 25.7 66.26 6.6
2018 09 20 22:00 260.3 0.0 0.00 76.5 24.7 69.58 6.4
2018 09 20 23:00 260.4 0.0 0.00 76.1 24.5 70.15 6.4
2018 09 20 24:00 260.7 0.0 0.00 75.9 24.4 73.16 5.8
2018 09 21 1:00 261.6 0.0 0.00 75.2 24.0 77.52 3.6
2018 09 21 2:00 261.7 0.0 0.00 75.1 23.9 79.38 3.4
2018 09 21 3:00 261.9 0.0 0.00 74.4 23.6 81.4 3.9
2018 09 21 4:00 267.4 0.0 0.00 74.0 23.3 82.5 4.5
2018 09 21 5:00 Wet 313.6 0.1 1.78 70.0 21.1 87.9 10.0
2018 09 21 6:00 265.5 0.0 0.00 67.9 20.0 88.8 6.2
2018 09 21 7:00 264.8 0.0 0.00 66.7 19.3 93.1 1.2
2018 09 21 8:00 263.5 0.0 0.00 67.9 19.9 91.1 3.0
2018 09 21 9:00 263.2 0.0 0.00 69.2 20.7 89 2.2
2018 09 21 10:00 Wet 290.4 0.0 0.25 69.9 21.0 91 2.7
2018 09 21 11:00 262.3 0.0 0.00 72.3 22.4 80.1 4.8
2018 09 21 12:00 261.7 0.0 0.00 72.5 22.5 78.64 7.1
2018 09 21 13:00 261.8 0.0 0.00 72.1 22.3 78.32 5.6
2018 09 21 14:00 261.4 0.0 0.00 72.6 22.5 76.46 5.1
2018 09 21 15:00 261.8 0.0 0.00 72.6 22.6 78.1 3.9
2018 09 21 16:00 262.6 0.0 0.00 71.4 21.9 82.2 4.3
2018 09 21 17:00 263.6 0.0 0.00 70.3 21.3 85.7 3.5
2018 09 21 18:00 263.9 0.0 0.00 66.9 19.4 77.18 5.4
2018 09 21 19:00 262.5 0.0 0.00 65.4 18.6 76.23 5.2
2018 09 21 20:00 261.9 0.0 0.00 64.6 18.1 72.94 6.9
2018 09 21 21:00 261.8 0.0 0.00 63.5 17.5 73.24 6.8
2018 09 21 22:00 262.2 0.0 0.00 62.5 16.9 74.95 5.5
2018 09 21 23:00 274.0 0.0 0.25 60.6 15.9 82.7 5.7
2018 09 21 24:00 Wet 304.2 0.0 0.76 59.2 15.1 88.1 5.8
2018 09 22 1:00 Wet 308.4 0.0 0.51 58.5 14.7 90.2 7.2
2018 09 22 2:00 Wet 312.6 0.0 0.51 57.7 14.3 91.2 6.9
2018 09 22 3:00 Wet 311.4 0.0 0.51 57.0 13.9 91.1 8.2
2018 09 22 4:00 Wet 298.5 0.0 0.00 56.6 13.7 92.4 6.4
2018 09 22 5:00 282.4 0.0 0.00 56.6 13.7 93 5.8
2018 09 22 6:00 265.7 0.0 0.00 56.6 13.7 92.3 6.3
2018 09 22 7:00 265.4 0.0 0.00 56.3 13.5 93.1 6.7
2018 09 22 8:00 264.7 0.0 0.00 56.5 13.6 92.8 6.4
2018 09 22 9:00 262.6 0.0 0.00 59.4 15.2 86.9 7.1
2018 09 22 10:00 261.8 0.0 0.00 61.6 16.4 80 7.8
2018 09 22 11:00 261.2 0.0 0.00 62.8 17.1 78.13 8.3
2018 09 22 12:00 260.5 0.0 0.00 63.9 17.7 75.97 8.1
2018 09 22 13:00 260.5 0.0 0.00 64.9 18.3 74.62 7.1
2018 09 22 14:00 260.8 0.0 0.00 65.2 18.5 74.78 6.2
2018 09 22 15:00 260.9 0.0 0.00 65.7 18.7 74.68 6.4
2018 09 22 16:00 261.5 0.0 0.00 65.5 18.6 75.37 5.9
2018 09 22 17:00 261.2 0.0 0.00 65.8 18.8 74.9 4.9
2018 09 22 18:00 261.8 0.0 0.00 65.1 18.4 77.73 5.3
2018 09 22 19:00 262.3 0.0 0.00 64.2 17.9 80.7 3.5
2018 09 22 20:00 263.6 0.0 0.00 62.1 16.7 85.7 4.2
2018 09 22 21:00 266.1 0.0 0.00 60.0 15.6 91.3 3.8
CST mV in mm F C % mph
Year Month Day Hour Leaf Wetness Total
Precipitation
Avg. Temp Avg. Rel.
Humidity
Wind
Speed

Back to the top of the page